Time,TemperatureF,DewpointF,PressureIn,WindDirection,WindDirectionDegrees,WindSpeedMPH,WindSpeedGustMPH,Humidity,HourlyPrecipIn,Conditions,Clouds,dailyrainin,SoftwareType,DateUTC
2013-05-15 00:00:00,75.0,73.0,30.08,SSW,202,10.0,11.0,93,0.00,,,0.00,TxWx,2013-05-15 05:00:00,
2013-05-15 00:02:00,75.0,73.0,30.08,SSW,202,4.0,4.0,93,0.00,,,0.00,TxWx,2013-05-15 05:02:00,
2013-05-15 00:03:00,75.0,73.0,30.08,South,180,8.0,9.0,92,0.00,,,0.00,TxWx,2013-05-15 05:03:00,
2013-05-15 00:04:00,75.0,73.0,30.08,SSE,157,12.0,12.0,92,0.00,,,0.00,TxWx,2013-05-15 05:04:00,
2013-05-15 00:05:00,75.0,73.0,30.08,SSW,202,10.0,10.0,93,0.00,,,0.00,TxWx,2013-05-15 05:05:00,
2013-05-15 00:08:00,75.0,73.0,30.07,SSW,202,9.0,10.0,93,0.00,,,0.00,TxWx,2013-05-15 05:08:00,
2013-05-15 00:09:00,75.0,73.0,30.07,SE,135,12.0,12.0,93,0.00,,,0.00,TxWx,2013-05-15 05:09:00,
2013-05-15 00:10:00,75.0,73.0,30.07,SSE,157,13.0,13.0,93,0.00,,,0.00,TxWx,2013-05-15 05:10:00,
2013-05-15 00:11:00,75.0,73.0,30.07,South,180,6.0,6.0,93,0.00,,,0.00,TxWx,2013-05-15 05:11:00,
2013-05-15 00:12:00,75.0,73.0,30.07,SSE,157,7.0,7.0,93,0.00,,,0.00,TxWx,2013-05-15 05:12:00,
2013-05-15 00:15:00,75.0,73.0,30.07,South,180,8.0,8.0,93,0.00,,,0.00,TxWx,2013-05-15 05:15:00,
2013-05-15 00:16:00,75.0,73.0,30.07,SSW,202,10.0,10.0,93,0.00,,,0.00,TxWx,2013-05-15 05:16:00,
2013-05-15 00:18:00,75.0,73.0,30.07,South,180,16.0,16.0,93,0.00,,,0.00,TxWx,2013-05-15 05:18:00,
2013-05-15 00:20:00,75.0,73.0,30.07,SSW,202,13.0,13.0,93,0.00,,,0.00,TxWx,2013-05-15 05:20:00,
2013-05-15 00:21:00,75.0,73.0,30.07,SSE,157,21.0,21.0,93,0.00,,,0.00,TxWx,2013-05-15 05:21:00,
2013-05-15 00:22:00,75.0,73.0,30.07,South,180,11.0,11.0,93,0.00,,,0.00,TxWx,2013-05-15 05:22:00,
2013-05-15 00:24:00,75.0,73.0,30.07,South,180,8.0,9.0,93,0.00,,,0.00,TxWx,2013-05-15 05:24:00,
2013-05-15 00:25:00,75.0,73.0,30.07,South,180,11.0,11.0,93,0.00,,,0.00,TxWx,2013-05-15 05:25:00,
2013-05-15 00:27:00,75.0,73.0,30.06,SSE,157,8.0,8.0,93,0.00,,,0.00,TxWx,2013-05-15 05:27:00,
2013-05-15 00:28:00,75.0,73.0,30.07,SSW,202,11.0,14.0,93,0.00,,,0.00,TxWx,2013-05-15 05:28:00,
2013-05-15 00:30:00,75.0,73.0,30.06,SSW,202,14.0,14.0,93,0.00,,,0.00,TxWx,2013-05-15 05:30:00,
2013-05-15 00:31:00,75.0,73.0,30.06,SSW,202,16.0,16.0,93,0.00,,,0.00,TxWx,2013-05-15 05:31:00,
2013-05-15 00:32:00,75.0,73.0,30.06,SSE,157,10.0,10.0,93,0.00,,,0.00,TxWx,2013-05-15 05:32:00,
2013-05-15 00:33:00,75.0,73.0,30.06,South,180,17.0,19.0,93,0.00,,,0.00,TxWx,2013-05-15 05:33:00,
2013-05-15 00:35:00,75.0,73.0,30.06,SSW,202,8.0,10.0,93,0.00,,,0.00,TxWx,2013-05-15 05:35:00,
2013-05-15 00:36:00,75.0,73.0,30.06,SSE,157,16.0,18.0,93,0.00,,,0.00,TxWx,2013-05-15 05:36:00,
2013-05-15 00:37:00,75.0,73.0,30.06,South,180,9.0,9.0,93,0.00,,,0.00,TxWx,2013-05-15 05:37:00,
2013-05-15 00:39:00,75.0,73.0,30.06,SSW,202,8.0,8.0,93,0.00,,,0.00,TxWx,2013-05-15 05:39:00,
2013-05-15 00:40:00,75.0,73.0,30.05,SE,135,11.0,11.0,93,0.00,,,0.00,TxWx,2013-05-15 05:40:00,
2013-05-15 00:42:00,75.0,73.0,30.05,SSE,157,7.0,8.0,93,0.00,,,0.00,TxWx,2013-05-15 05:42:00,
2013-05-15 00:45:00,75.0,73.0,30.05,South,180,14.0,14.0,93,0.00,,,0.00,TxWx,2013-05-15 05:45:00,
2013-05-15 00:46:00,75.0,73.0,30.05,South,180,5.0,8.0,93,0.00,,,0.00,TxWx,2013-05-15 05:46:00,
2013-05-15 00:48:00,75.0,73.0,30.05,South,180,16.0,16.0,93,0.00,,,0.00,TxWx,2013-05-15 05:48:00,
2013-05-15 00:51:00,75.0,73.0,30.05,SW,225,5.0,6.0,93,0.00,,,0.00,TxWx,2013-05-15 05:51:00,
2013-05-15 00:53:00,75.0,73.0,30.05,SSW,202,14.0,14.0,93,0.00,,,0.00,TxWx,2013-05-15 05:53:00,
2013-05-15 00:55:00,75.0,73.0,30.05,SSW,202,9.0,9.0,93,0.00,,,0.00,TxWx,2013-05-15 05:55:00,
2013-05-15 00:56:00,75.0,73.0,30.04,SSE,157,12.0,12.0,93,0.00,,,0.00,TxWx,2013-05-15 05:56:00,
2013-05-15 00:58:00,75.0,73.0,30.04,ESE,112,11.0,11.0,93,0.00,,,0.00,TxWx,2013-05-15 05:58:00,
2013-05-15 00:59:00,75.0,73.0,30.04,SSE,157,11.0,11.0,93,0.00,,,0.00,TxWx,2013-05-15 05:59:00,
2013-05-15 01:00:00,75.0,73.0,30.04,SSE,157,6.0,6.0,93,0.00,,,0.00,TxWx,2013-05-15 06:00:00,
2013-05-15 01:03:00,75.0,73.0,30.04,SE,135,9.0,10.0,93,0.00,,,0.00,TxWx,2013-05-15 06:03:00,
2013-05-15 01:04:00,75.0,73.0,30.04,SE,135,6.0,6.0,93,0.00,,,0.00,TxWx,2013-05-15 06:04:00,
2013-05-15 01:05:00,75.0,73.0,30.04,SSE,157,13.0,13.0,93,0.00,,,0.00,TxWx,2013-05-15 06:05:00,
2013-05-15 01:06:00,75.0,73.0,30.03,SSW,202,9.0,9.0,93,0.00,,,0.00,TxWx,2013-05-15 06:06:00,
2013-05-15 01:08:00,75.0,73.0,30.03,SE,135,6.0,6.0,93,0.00,,,0.00,TxWx,2013-05-15 06:08:00,
2013-05-15 01:10:00,75.0,73.0,30.03,SSE,157,12.0,12.0,93,0.00,,,0.00,TxWx,2013-05-15 06:10:00,
2013-05-15 01:11:00,75.0,73.0,30.03,SE,135,16.0,16.0,94,0.00,,,0.00,TxWx,2013-05-15 06:11:00,
2013-05-15 01:16:00,75.0,73.0,30.02,SSE,157,10.0,14.0,94,0.00,,,0.00,TxWx,2013-05-15 06:16:00,
2013-05-15 01:17:00,75.0,73.0,30.02,South,180,15.0,16.0,94,0.00,,,0.00,TxWx,2013-05-15 06:17:00,
2013-05-15 01:21:00,75.0,73.0,30.02,South,180,10.0,10.0,94,0.00,,,0.00,TxWx,2013-05-15 06:21:00,
2013-05-15 01:22:00,75.0,73.0,30.02,South,180,13.0,13.0,94,0.00,,,0.00,TxWx,2013-05-15 06:22:00,
2013-05-15 01:23:00,75.0,73.0,30.02,SSE,157,18.0,20.0,94,0.00,,,0.00,TxWx,2013-05-15 06:23:00,
2013-05-15 01:24:00,75.0,73.0,30.02,SSE,157,13.0,15.0,94,0.00,,,0.00,TxWx,2013-05-15 06:24:00,
2013-05-15 01:27:00,75.0,73.0,30.02,SSE,157,6.0,8.0,94,0.00,,,0.00,TxWx,2013-05-15 06:27:00,
2013-05-15 01:28:00,75.0,73.0,30.02,SSE,157,18.0,18.0,94,0.00,,,0.00,TxWx,2013-05-15 06:28:00,
2013-05-15 01:29:00,75.0,73.0,30.02,South,180,12.0,12.0,94,0.00,,,0.00,TxWx,2013-05-15 06:29:00,
2013-05-15 01:30:00,74.0,72.0,30.02,SSW,202,9.0,10.0,94,0.00,,,0.00,TxWx,2013-05-15 06:30:00,
2013-05-15 01:33:00,74.0,72.0,30.02,SSE,157,6.0,8.0,95,0.00,,,0.00,TxWx,2013-05-15 06:33:00,
2013-05-15 01:34:00,74.0,72.0,30.02,SSE,157,7.0,8.0,95,0.00,,,0.00,TxWx,2013-05-15 06:34:00,
2013-05-15 01:35:00,74.0,72.0,30.02,South,180,15.0,15.0,95,0.00,,,0.00,TxWx,2013-05-15 06:35:00,
2013-05-15 01:37:00,74.0,72.0,30.02,South,180,11.0,11.0,95,0.00,,,0.00,TxWx,2013-05-15 06:37:00,
2013-05-15 01:40:00,74.0,72.0,30.02,SSW,202,11.0,15.0,95,0.00,,,0.00,TxWx,2013-05-15 06:40:00,
2013-05-15 01:41:00,74.0,73.0,30.02,South,180,10.0,10.0,96,0.00,,,0.00,TxWx,2013-05-15 06:41:00,
2013-05-15 01:42:00,74.0,72.0,30.02,SE,135,18.0,18.0,95,0.00,,,0.00,TxWx,2013-05-15 06:42:00,
2013-05-15 01:44:00,74.0,73.0,30.01,SSE,157,10.0,12.0,96,0.00,,,0.00,TxWx,2013-05-15 06:44:00,
2013-05-15 01:45:00,74.0,73.0,30.01,SSE,157,13.0,14.0,96,0.00,,,0.00,TxWx,2013-05-15 06:45:00,
2013-05-15 01:46:00,74.0,73.0,30.01,South,180,11.0,13.0,96,0.00,,,0.00,TxWx,2013-05-15 06:46:00,
2013-05-15 01:47:00,74.0,73.0,30.01,SSE,157,13.0,15.0,96,0.00,,,0.00,TxWx,2013-05-15 06:47:00,
2013-05-15 01:50:00,74.0,73.0,30.01,SE,135,16.0,16.0,96,0.00,,,0.00,TxWx,2013-05-15 06:50:00,
2013-05-15 01:52:00,74.0,72.0,30.01,SSW,202,14.0,14.0,95,0.00,,,0.00,TxWx,2013-05-15 06:52:00,
2013-05-15 01:53:00,74.0,72.0,30.01,SSW,202,8.0,11.0,95,0.00,,,0.00,TxWx,2013-05-15 06:53:00,
2013-05-15 01:54:00,74.0,72.0,30.01,South,180,11.0,12.0,95,0.00,,,0.00,TxWx,2013-05-15 06:54:00,
2013-05-15 01:55:00,74.0,72.0,30.01,SSW,202,10.0,11.0,95,0.00,,,0.00,TxWx,2013-05-15 06:55:00,
2013-05-15 01:57:00,74.0,72.0,30.00,SSE,157,13.0,13.0,95,0.00,,,0.00,TxWx,2013-05-15 06:57:00,
2013-05-15 01:58:00,74.0,72.0,30.00,SSE,157,13.0,13.0,95,0.00,,,0.00,TxWx,2013-05-15 06:58:00,
2013-05-15 01:59:00,74.0,72.0,30.00,South,180,15.0,15.0,95,0.00,,,0.00,TxWx,2013-05-15 06:59:00,
2013-05-15 02:02:00,74.0,72.0,30.01,SSW,202,18.0,18.0,95,0.00,,,0.00,TxWx,2013-05-15 07:02:00,
2013-05-15 02:04:00,74.0,72.0,30.00,SSE,157,9.0,9.0,95,0.00,,,0.00,TxWx,2013-05-15 07:04:00,
2013-05-15 02:05:00,74.0,72.0,30.01,SSW,202,8.0,10.0,95,0.00,,,0.00,TxWx,2013-05-15 07:05:00,
2013-05-15 02:09:00,74.0,72.0,30.01,SSW,202,12.0,12.0,95,0.00,,,0.00,TxWx,2013-05-15 07:09:00,
2013-05-15 02:10:00,74.0,72.0,30.01,SSW,202,5.0,6.0,95,0.00,,,0.00,TxWx,2013-05-15 07:10:00,
2013-05-15 02:13:00,74.0,72.0,30.01,SSW,202,11.0,11.0,95,0.00,,,0.00,TxWx,2013-05-15 07:13:00,
2013-05-15 02:14:00,74.0,72.0,30.01,SSW,202,10.0,12.0,95,0.00,,,0.00,TxWx,2013-05-15 07:14:00,
2013-05-15 02:15:00,74.0,72.0,30.01,South,180,14.0,14.0,95,0.00,,,0.00,TxWx,2013-05-15 07:15:00,
2013-05-15 02:16:00,74.0,72.0,30.01,SSW,202,13.0,13.0,95,0.00,,,0.00,TxWx,2013-05-15 07:16:00,
2013-05-15 02:20:00,74.0,72.0,30.01,SSW,202,17.0,19.0,95,0.00,,,0.00,TxWx,2013-05-15 07:20:00,
2013-05-15 02:21:00,74.0,72.0,30.01,SE,135,9.0,12.0,95,0.00,,,0.00,TxWx,2013-05-15 07:21:00,
2013-05-15 02:23:00,74.0,72.0,30.00,South,180,7.0,10.0,95,0.00,,,0.00,TxWx,2013-05-15 07:23:00,
2013-05-15 02:25:00,74.0,72.0,30.01,SSW,202,10.0,10.0,95,0.00,,,0.00,TxWx,2013-05-15 07:25:00,
2013-05-15 02:26:00,74.0,72.0,30.01,SSE,157,11.0,11.0,95,0.00,,,0.00,TxWx,2013-05-15 07:26:00,
2013-05-15 02:27:00,74.0,72.0,30.01,SSW,202,11.0,11.0,95,0.00,,,0.00,TxWx,2013-05-15 07:27:00,
2013-05-15 02:30:00,74.0,72.0,30.00,SSW,202,13.0,13.0,95,0.00,,,0.00,TxWx,2013-05-15 07:30:00,
2013-05-15 02:32:00,74.0,72.0,30.00,SE,135,7.0,9.0,95,0.00,,,0.00,TxWx,2013-05-15 07:32:00,
2013-05-15 02:35:00,74.0,72.0,30.00,South,180,8.0,9.0,95,0.00,,,0.00,TxWx,2013-05-15 07:35:00,
2013-05-15 02:36:00,74.0,72.0,30.00,SSE,157,12.0,13.0,95,0.00,,,0.00,TxWx,2013-05-15 07:36:00,
2013-05-15 02:39:00,74.0,72.0,29.99,SSE,157,8.0,11.0,95,0.00,,,0.00,TxWx,2013-05-15 07:39:00,
2013-05-15 02:40:00,74.0,72.0,29.99,SSW,202,8.0,9.0,95,0.00,,,0.00,TxWx,2013-05-15 07:40:00,
2013-05-15 02:41:00,74.0,72.0,29.99,South,180,17.0,17.0,95,0.00,,,0.00,TxWx,2013-05-15 07:41:00,
2013-05-15 02:42:00,74.0,72.0,30.00,SSW,202,10.0,10.0,95,0.00,,,0.00,TxWx,2013-05-15 07:42:00,
2013-05-15 02:44:00,74.0,72.0,29.99,SSE,157,8.0,9.0,95,0.00,,,0.00,TxWx,2013-05-15 07:44:00,
2013-05-15 02:45:00,74.0,72.0,29.99,SSW,202,11.0,11.0,95,0.00,,,0.00,TxWx,2013-05-15 07:45:00,
2013-05-15 02:46:00,74.0,72.0,29.99,SSE,157,6.0,7.0,95,0.00,,,0.00,TxWx,2013-05-15 07:46:00,
2013-05-15 02:47:00,74.0,72.0,29.99,SSE,157,14.0,14.0,95,0.00,,,0.00,TxWx,2013-05-15 07:47:00,
2013-05-15 02:50:00,74.0,72.0,29.99,South,180,10.0,11.0,95,0.00,,,0.00,TxWx,2013-05-15 07:50:00,
2013-05-15 02:51:00,74.0,72.0,29.99,South,180,15.0,15.0,95,0.00,,,0.00,TxWx,2013-05-15 07:51:00,
2013-05-15 02:53:00,74.0,72.0,29.99,SSW,202,10.0,12.0,95,0.00,,,0.00,TxWx,2013-05-15 07:53:00,
2013-05-15 02:54:00,74.0,72.0,29.99,SSE,157,13.0,13.0,95,0.00,,,0.00,TxWx,2013-05-15 07:54:00,
2013-05-15 02:57:00,74.0,72.0,29.99,SSE,157,10.0,10.0,95,0.00,,,0.00,TxWx,2013-05-15 07:57:00,
2013-05-15 02:58:00,74.0,72.0,29.99,SSW,202,11.0,12.0,95,0.00,,,0.00,TxWx,2013-05-15 07:58:00,
2013-05-15 02:59:00,74.0,72.0,29.99,SSE,157,15.0,16.0,95,0.00,,,0.00,TxWx,2013-05-15 07:59:00,
2013-05-15 03:03:00,74.0,72.0,29.99,South,180,16.0,16.0,95,0.00,,,0.00,TxWx,2013-05-15 08:03:00,
2013-05-15 03:05:00,74.0,72.0,29.99,SSE,157,9.0,10.0,95,0.00,,,0.00,TxWx,2013-05-15 08:05:00,
2013-05-15 03:06:00,74.0,72.0,29.99,SSE,157,10.0,11.0,95,0.00,,,0.00,TxWx,2013-05-15 08:06:00,
2013-05-15 03:08:00,74.0,72.0,29.99,SSE,157,13.0,13.0,95,0.00,,,0.00,TxWx,2013-05-15 08:08:00,
2013-05-15 03:09:00,74.0,72.0,29.98,South,180,14.0,15.0,95,0.00,,,0.00,TxWx,2013-05-15 08:09:00,
2013-05-15 03:11:00,74.0,72.0,29.98,SSE,157,16.0,16.0,95,0.00,,,0.00,TxWx,2013-05-15 08:11:00,
2013-05-15 03:12:00,74.0,72.0,29.98,SSE,157,9.0,9.0,95,0.00,,,0.00,TxWx,2013-05-15 08:12:00,
2013-05-15 03:14:00,74.0,72.0,29.98,SSE,157,12.0,13.0,95,0.00,,,0.00,TxWx,2013-05-15 08:14:00,
2013-05-15 03:15:00,74.0,72.0,29.98,South,180,10.0,11.0,95,0.00,,,0.00,TxWx,2013-05-15 08:15:00,
2013-05-15 03:18:00,74.0,72.0,29.98,SSE,157,10.0,10.0,95,0.00,,,0.00,TxWx,2013-05-15 08:18:00,
2013-05-15 03:19:00,74.0,72.0,29.98,SE,135,5.0,6.0,95,0.00,,,0.00,TxWx,2013-05-15 08:19:00,
2013-05-15 03:20:00,74.0,72.0,29.98,SSE,157,13.0,13.0,95,0.00,,,0.00,TxWx,2013-05-15 08:20:00,
2013-05-15 03:22:00,74.0,72.0,29.99,South,180,16.0,16.0,95,0.00,,,0.00,TxWx,2013-05-15 08:22:00,
2013-05-15 03:23:00,74.0,72.0,29.99,SSW,202,13.0,16.0,95,0.00,,,0.00,TxWx,2013-05-15 08:23:00,
2013-05-15 03:25:00,74.0,72.0,29.99,SE,135,10.0,11.0,95,0.00,,,0.00,TxWx,2013-05-15 08:25:00,
2013-05-15 03:26:00,74.0,72.0,29.99,SE,135,11.0,11.0,95,0.00,,,0.00,TxWx,2013-05-15 08:26:00,
2013-05-15 03:27:00,74.0,72.0,29.99,South,180,6.0,7.0,95,0.00,,,0.00,TxWx,2013-05-15 08:27:00,
2013-05-15 03:28:00,74.0,72.0,29.99,South,180,6.0,6.0,95,0.00,,,0.00,TxWx,2013-05-15 08:28:00,
2013-05-15 03:29:00,74.0,72.0,29.99,South,180,14.0,15.0,95,0.00,,,0.00,TxWx,2013-05-15 08:29:00,
2013-05-15 03:31:00,74.0,72.0,29.99,South,180,12.0,13.0,95,0.00,,,0.00,TxWx,2013-05-15 08:31:00,
2013-05-15 03:33:00,74.0,72.0,29.99,SSE,157,13.0,13.0,95,0.00,,,0.00,TxWx,2013-05-15 08:33:00,
2013-05-15 03:34:00,74.0,72.0,29.99,SSE,157,19.0,19.0,95,0.00,,,0.00,TxWx,2013-05-15 08:34:00,
2013-05-15 03:36:00,75.0,73.0,29.99,SSW,202,8.0,11.0,95,0.00,,,0.00,TxWx,2013-05-15 08:36:00,
2013-05-15 03:37:00,75.0,73.0,29.99,SW,225,10.0,12.0,95,0.00,,,0.00,TxWx,2013-05-15 08:37:00,
2013-05-15 03:38:00,75.0,73.0,30.00,SE,135,8.0,8.0,95,0.00,,,0.00,TxWx,2013-05-15 08:38:00,
2013-05-15 03:39:00,75.0,73.0,30.00,SSW,202,8.0,8.0,95,0.00,,,0.00,TxWx,2013-05-15 08:39:00,
2013-05-15 03:42:00,74.0,72.0,30.00,SSW,202,10.0,13.0,95,0.00,,,0.00,TxWx,2013-05-15 08:42:00,
2013-05-15 03:44:00,74.0,72.0,30.00,SSW,202,8.0,10.0,95,0.00,,,0.00,TxWx,2013-05-15 08:44:00,
2013-05-15 03:48:00,74.0,72.0,30.01,SSW,202,5.0,5.0,95,0.00,,,0.00,TxWx,2013-05-15 08:48:00,
2013-05-15 03:50:00,74.0,72.0,30.02,SSW,202,13.0,14.0,95,0.00,,,0.00,TxWx,2013-05-15 08:50:00,
2013-05-15 03:51:00,74.0,72.0,30.02,WSW,247,5.0,5.0,95,0.00,,,0.00,TxWx,2013-05-15 08:51:00,
2013-05-15 03:52:00,74.0,72.0,30.02,SSW,202,5.0,6.0,95,0.00,,,0.00,TxWx,2013-05-15 08:52:00,
2013-05-15 03:53:00,74.0,72.0,30.02,West,270,6.0,8.0,95,0.00,,,0.00,TxWx,2013-05-15 08:53:00,
2013-05-15 03:54:00,74.0,72.0,30.02,South,180,7.0,8.0,95,0.00,,,0.00,TxWx,2013-05-15 08:54:00,
2013-05-15 03:56:00,74.0,73.0,30.02,SW,225,5.0,5.0,96,0.00,,,0.00,TxWx,2013-05-15 08:56:00,
2013-05-15 03:58:00,74.0,73.0,30.02,SSW,202,6.0,6.0,96,0.00,,,0.00,TxWx,2013-05-15 08:58:00,
2013-05-15 03:59:00,74.0,73.0,30.02,SW,225,8.0,8.0,96,0.00,,,0.00,TxWx,2013-05-15 08:59:00,
2013-05-15 04:00:00,74.0,73.0,30.02,SW,225,6.0,6.0,96,0.00,,,0.00,TxWx,2013-05-15 09:00:00,
2013-05-15 04:03:00,74.0,73.0,30.02,South,180,7.0,8.0,96,0.00,,,0.00,TxWx,2013-05-15 09:03:00,
2013-05-15 04:04:00,74.0,73.0,30.03,South,180,11.0,12.0,96,0.00,,,0.00,TxWx,2013-05-15 09:04:00,
2013-05-15 04:05:00,74.0,73.0,30.03,South,180,8.0,8.0,96,0.00,,,0.00,TxWx,2013-05-15 09:05:00,
2013-05-15 04:09:00,74.0,73.0,30.03,SSW,202,8.0,10.0,96,0.00,,,0.00,TxWx,2013-05-15 09:09:00,
2013-05-15 04:10:00,74.0,73.0,30.03,SSW,202,8.0,11.0,96,0.00,,,0.00,TxWx,2013-05-15 09:10:00,
2013-05-15 04:12:00,74.0,73.0,30.03,SSE,157,6.0,6.0,96,0.00,,,0.00,TxWx,2013-05-15 09:12:00,
2013-05-15 04:14:00,74.0,73.0,30.03,SSW,202,8.0,8.0,96,0.00,,,0.00,TxWx,2013-05-15 09:14:00,
2013-05-15 04:15:00,74.0,73.0,30.03,SW,225,10.0,10.0,96,0.00,,,0.00,TxWx,2013-05-15 09:15:00,
2013-05-15 04:16:00,74.0,73.0,30.03,SW,225,12.0,12.0,96,0.00,,,0.00,TxWx,2013-05-15 09:16:00,
2013-05-15 04:17:00,74.0,73.0,30.03,SW,225,10.0,10.0,96,0.00,,,0.00,TxWx,2013-05-15 09:17:00,
2013-05-15 04:21:00,74.0,73.0,30.03,South,180,8.0,8.0,96,0.00,,,0.00,TxWx,2013-05-15 09:21:00,
2013-05-15 04:22:00,74.0,73.0,30.03,South,180,5.0,5.0,96,0.00,,,0.00,TxWx,2013-05-15 09:22:00,
2013-05-15 04:24:00,74.0,73.0,30.03,SW,225,7.0,7.0,97,0.00,,,0.00,TxWx,2013-05-15 09:24:00,
2013-05-15 04:26:00,74.0,73.0,30.03,SSW,202,6.0,8.0,97,0.00,,,0.00,TxWx,2013-05-15 09:26:00,
2013-05-15 04:27:00,74.0,73.0,30.03,SSW,202,6.0,8.0,97,0.00,,,0.00,TxWx,2013-05-15 09:27:00,
2013-05-15 04:28:00,74.0,73.0,30.03,SW,225,4.0,4.0,97,0.00,,,0.00,TxWx,2013-05-15 09:28:00,
2013-05-15 04:32:00,74.0,73.0,30.03,SSW,202,8.0,8.0,97,0.00,,,0.00,TxWx,2013-05-15 09:32:00,
2013-05-15 04:33:00,74.0,73.0,30.03,WSW,247,4.0,4.0,97,0.00,,,0.00,TxWx,2013-05-15 09:33:00,
2013-05-15 04:38:00,74.0,73.0,30.03,SSW,202,5.0,5.0,97,0.00,,,0.00,TxWx,2013-05-15 09:38:00,
2013-05-15 04:39:00,74.0,73.0,30.03,SSW,202,4.0,5.0,97,0.00,,,0.00,TxWx,2013-05-15 09:39:00,
2013-05-15 04:40:00,74.0,73.0,30.03,SSW,202,8.0,8.0,97,0.00,,,0.00,TxWx,2013-05-15 09:40:00,
2013-05-15 04:42:00,74.0,73.0,30.03,WSW,247,5.0,5.0,97,0.00,,,0.00,TxWx,2013-05-15 09:42:00,
2013-05-15 04:43:00,74.0,73.0,30.03,SSW,202,5.0,5.0,97,0.00,,,0.00,TxWx,2013-05-15 09:43:00,
2013-05-15 04:46:00,74.0,73.0,30.02,SSW,202,11.0,11.0,97,0.00,,,0.00,TxWx,2013-05-15 09:46:00,
2013-05-15 04:47:00,74.0,73.0,30.02,South,180,5.0,6.0,97,0.00,,,0.00,TxWx,2013-05-15 09:47:00,
2013-05-15 04:48:00,74.0,73.0,30.02,SSW,202,8.0,8.0,97,0.00,,,0.00,TxWx,2013-05-15 09:48:00,
2013-05-15 04:49:00,74.0,73.0,30.02,South,180,8.0,8.0,97,0.00,,,0.00,TxWx,2013-05-15 09:49:00,
2013-05-15 04:50:00,74.0,73.0,30.02,WSW,247,6.0,7.0,97,0.00,,,0.00,TxWx,2013-05-15 09:50:00,
2013-05-15 04:51:00,74.0,73.0,30.02,SSW,202,6.0,6.0,97,0.00,,,0.00,TxWx,2013-05-15 09:51:00,
2013-05-15 04:53:00,74.0,73.0,30.02,South,180,11.0,11.0,97,0.00,,,0.00,TxWx,2013-05-15 09:53:00,
2013-05-15 04:54:00,74.0,73.0,30.02,WSW,247,6.0,6.0,97,0.00,,,0.00,TxWx,2013-05-15 09:54:00,
2013-05-15 04:55:00,74.0,73.0,30.02,South,180,9.0,9.0,97,0.00,,,0.00,TxWx,2013-05-15 09:55:00,
2013-05-15 04:57:00,74.0,73.0,30.02,South,180,7.0,7.0,97,0.00,,,0.00,TxWx,2013-05-15 09:57:00,
2013-05-15 04:58:00,74.0,73.0,30.02,SSW,202,8.0,8.0,97,0.00,,,0.00,TxWx,2013-05-15 09:58:00,
2013-05-15 05:00:00,74.0,73.0,30.02,South,180,4.0,4.0,97,0.00,,,0.00,TxWx,2013-05-15 10:00:00,
2013-05-15 05:03:00,74.0,73.0,30.02,SW,225,8.0,8.0,97,0.00,,,0.00,TxWx,2013-05-15 10:03:00,
2013-05-15 05:04:00,74.0,73.0,30.02,South,180,5.0,6.0,97,0.00,,,0.00,TxWx,2013-05-15 10:04:00,
2013-05-15 05:06:00,74.0,73.0,30.02,SW,225,8.0,8.0,97,0.00,,,0.00,TxWx,2013-05-15 10:06:00,
2013-05-15 05:08:00,74.0,73.0,30.02,SSE,157,5.0,5.0,97,0.00,,,0.00,TxWx,2013-05-15 10:08:00,
2013-05-15 05:09:00,74.0,73.0,30.02,South,180,4.0,4.0,97,0.00,,,0.00,TxWx,2013-05-15 10:09:00,
2013-05-15 05:11:00,74.0,73.0,30.02,South,180,3.0,4.0,97,0.00,,,0.00,TxWx,2013-05-15 10:11:00,
2013-05-15 05:13:00,74.0,73.0,30.02,South,180,5.0,7.0,97,0.00,,,0.00,TxWx,2013-05-15 10:13:00,
2013-05-15 05:15:00,74.0,73.0,30.02,SSW,202,8.0,8.0,97,0.00,,,0.00,TxWx,2013-05-15 10:15:00,
2013-05-15 05:16:00,74.0,73.0,30.02,SSW,202,6.0,7.0,97,0.00,,,0.00,TxWx,2013-05-15 10:16:00,
2013-05-15 05:17:00,74.0,73.0,30.02,SSW,202,6.0,6.0,97,0.00,,,0.00,TxWx,2013-05-15 10:17:00,
2013-05-15 05:20:00,75.0,73.0,30.02,SSW,202,6.0,6.0,97,0.00,,,0.00,TxWx,2013-05-15 10:20:00,
2013-05-15 05:21:00,75.0,74.0,30.02,SW,225,5.0,5.0,97,0.00,,,0.00,TxWx,2013-05-15 10:21:00,
2013-05-15 05:23:00,75.0,74.0,30.03,SSW,202,5.0,5.0,97,0.00,,,0.00,TxWx,2013-05-15 10:23:00,
2013-05-15 05:24:00,75.0,74.0,30.02,SW,225,7.0,8.0,97,0.00,,,0.00,TxWx,2013-05-15 10:24:00,
2013-05-15 05:26:00,75.0,74.0,30.02,SSW,202,6.0,6.0,97,0.00,,,0.00,TxWx,2013-05-15 10:26:00,
2013-05-15 05:29:00,75.0,74.0,30.02,SSW,202,6.0,6.0,97,0.00,,,0.00,TxWx,2013-05-15 10:29:00,
2013-05-15 05:31:00,75.0,74.0,30.02,SSW,202,6.0,6.0,97,0.00,,,0.00,TxWx,2013-05-15 10:31:00,
2013-05-15 05:32:00,75.0,74.0,30.02,SW,225,3.0,3.0,97,0.00,,,0.00,TxWx,2013-05-15 10:32:00,
2013-05-15 05:34:00,75.0,74.0,30.02,SSW,202,6.0,7.0,97,0.00,,,0.00,TxWx,2013-05-15 10:34:00,
2013-05-15 05:36:00,75.0,74.0,30.02,ENE,67,3.0,3.0,97,0.00,,,0.00,TxWx,2013-05-15 10:36:00,
2013-05-15 05:38:00,75.0,74.0,30.02,SSW,202,5.0,5.0,97,0.00,,,0.00,TxWx,2013-05-15 10:38:00,
2013-05-15 05:39:00,75.0,74.0,30.02,SW,225,4.0,5.0,97,0.00,,,0.00,TxWx,2013-05-15 10:39:00,
2013-05-15 05:40:00,75.0,74.0,30.02,SW,225,6.0,7.0,97,0.00,,,0.00,TxWx,2013-05-15 10:40:00,
2013-05-15 05:43:00,75.0,74.0,30.02,SW,225,4.0,5.0,97,0.00,,,0.00,TxWx,2013-05-15 10:43:00,
2013-05-15 05:45:00,75.0,74.0,30.02,South,180,5.0,5.0,97,0.00,,,0.00,TxWx,2013-05-15 10:45:00,
2013-05-15 05:46:00,75.0,74.0,30.02,South,180,8.0,8.0,97,0.00,,,0.00,TxWx,2013-05-15 10:46:00,
2013-05-15 05:47:00,75.0,74.0,30.02,South,180,4.0,5.0,97,0.00,,,0.00,TxWx,2013-05-15 10:47:00,
2013-05-15 05:49:00,75.0,74.0,30.02,South,180,5.0,5.0,97,0.00,,,0.00,TxWx,2013-05-15 10:49:00,
2013-05-15 05:51:00,75.0,74.0,30.02,SSW,202,8.0,8.0,97,0.00,,,0.00,TxWx,2013-05-15 10:51:00,
2013-05-15 05:54:00,75.0,74.0,30.02,South,180,6.0,6.0,97,0.00,,,0.00,TxWx,2013-05-15 10:54:00,
2013-05-15 05:57:00,75.0,74.0,30.01,SSE,157,5.0,5.0,97,0.00,,,0.01,TxWx,2013-05-15 10:57:00,
2013-05-15 06:00:00,74.0,73.0,30.01,SSE,157,6.0,8.0,97,0.00,,,0.01,TxWx,2013-05-15 11:00:00,
2013-05-15 06:03:00,74.0,73.0,30.01,South,180,8.0,8.0,97,0.06,,,0.01,TxWx,2013-05-15 11:03:00,
2013-05-15 06:04:00,74.0,73.0,30.01,SSE,157,9.0,9.0,97,0.06,,,0.01,TxWx,2013-05-15 11:04:00,
2013-05-15 06:05:00,74.0,73.0,30.01,SW,225,9.0,9.0,97,0.06,,,0.01,TxWx,2013-05-15 11:05:00,
2013-05-15 06:06:00,74.0,73.0,30.01,SSW,202,10.0,12.0,97,0.06,,,0.01,TxWx,2013-05-15 11:06:00,
2013-05-15 06:09:00,74.0,73.0,30.01,South,180,5.0,5.0,98,0.06,,,0.01,TxWx,2013-05-15 11:09:00,
2013-05-15 06:11:00,74.0,73.0,30.01,SE,135,5.0,5.0,98,0.00,,,0.01,TxWx,2013-05-15 11:11:00,
2013-05-15 06:13:00,74.0,73.0,30.01,South,180,5.0,5.0,98,0.00,,,0.01,TxWx,2013-05-15 11:13:00,
2013-05-15 06:14:00,74.0,73.0,30.01,SE,135,6.0,6.0,98,0.00,,,0.01,TxWx,2013-05-15 11:14:00,
2013-05-15 06:15:00,74.0,73.0,30.01,SSE,157,6.0,6.0,98,0.00,,,0.01,TxWx,2013-05-15 11:15:00,
2013-05-15 06:18:00,74.0,73.0,30.01,South,180,9.0,9.0,98,0.00,,,0.01,TxWx,2013-05-15 11:18:00,
2013-05-15 06:19:00,74.0,73.0,30.01,SE,135,6.0,6.0,98,0.00,,,0.02,TxWx,2013-05-15 11:19:00,
2013-05-15 06:20:00,74.0,74.0,30.01,SE,135,8.0,8.0,99,0.00,,,0.02,TxWx,2013-05-15 11:20:00,
2013-05-15 06:21:00,74.0,74.0,30.00,SSW,202,10.0,11.0,99,0.06,,,0.02,TxWx,2013-05-15 11:21:00,
2013-05-15 06:24:00,74.0,74.0,30.00,SSW,202,7.0,7.0,99,0.06,,,0.02,TxWx,2013-05-15 11:24:00,
2013-05-15 06:26:00,74.0,74.0,30.00,SSE,157,8.0,10.0,99,0.06,,,0.02,TxWx,2013-05-15 11:26:00,
2013-05-15 06:27:00,74.0,74.0,30.00,South,180,9.0,9.0,99,0.06,,,0.02,TxWx,2013-05-15 11:27:00,
2013-05-15 06:29:00,74.0,74.0,30.00,SW,225,10.0,10.0,99,0.06,,,0.02,TxWx,2013-05-15 11:29:00,
2013-05-15 06:30:00,74.0,74.0,29.99,SE,135,7.0,7.0,99,0.06,,,0.02,TxWx,2013-05-15 11:30:00,
2013-05-15 06:31:00,74.0,74.0,30.00,South,180,7.0,7.0,99,0.00,,,0.02,TxWx,2013-05-15 11:31:00,
2013-05-15 06:34:00,74.0,74.0,30.00,SE,135,8.0,8.0,99,0.00,,,0.02,TxWx,2013-05-15 11:34:00,
2013-05-15 06:35:00,74.0,74.0,30.00,South,180,8.0,10.0,99,0.00,,,0.03,TxWx,2013-05-15 11:35:00,
2013-05-15 06:36:00,74.0,74.0,29.99,South,180,13.0,14.0,99,0.00,,,0.03,TxWx,2013-05-15 11:36:00,
2013-05-15 06:37:00,74.0,74.0,29.99,SSE,157,13.0,13.0,100,0.00,,,0.03,TxWx,2013-05-15 11:37:00,
2013-05-15 06:39:00,74.0,74.0,29.99,South,180,14.0,14.0,100,0.00,,,0.03,TxWx,2013-05-15 11:39:00,
2013-05-15 06:40:00,74.0,74.0,29.99,South,180,6.0,6.0,100,0.00,,,0.03,TxWx,2013-05-15 11:40:00,
2013-05-15 06:42:00,74.0,74.0,30.00,SSE,157,13.0,13.0,100,0.06,,,0.03,TxWx,2013-05-15 11:42:00,
2013-05-15 06:45:00,73.0,73.0,30.00,South,180,9.0,11.0,100,0.06,,,0.04,TxWx,2013-05-15 11:45:00,
2013-05-15 06:46:00,73.0,73.0,30.00,SSW,202,9.0,10.0,100,0.06,,,0.04,TxWx,2013-05-15 11:46:00,
2013-05-15 06:48:00,73.0,73.0,30.00,SSE,157,9.0,13.0,100,0.06,,,0.05,TxWx,2013-05-15 11:48:00,
2013-05-15 06:49:00,73.0,73.0,30.00,SSW,202,10.0,10.0,100,0.06,,,0.05,TxWx,2013-05-15 11:49:00,
2013-05-15 06:52:00,73.0,73.0,29.99,South,180,11.0,11.0,100,0.12,,,0.05,TxWx,2013-05-15 11:52:00,
2013-05-15 06:53:00,73.0,73.0,29.99,SSE,157,20.0,20.0,100,0.12,,,0.06,TxWx,2013-05-15 11:53:00,
2013-05-15 06:56:00,73.0,73.0,29.99,SSE,157,12.0,13.0,100,0.12,,,0.06,TxWx,2013-05-15 11:56:00,
2013-05-15 06:58:00,73.0,73.0,29.98,SE,135,12.0,12.0,100,0.12,,,0.07,TxWx,2013-05-15 11:58:00,
2013-05-15 06:59:00,73.0,73.0,29.98,South,180,15.0,17.0,100,0.12,,,0.07,TxWx,2013-05-15 11:59:00,
2013-05-15 07:01:00,73.0,73.0,29.98,SE,135,10.0,10.0,100,0.12,,,0.07,TxWx,2013-05-15 12:01:00,
2013-05-15 07:03:00,73.0,73.0,29.97,SSE,157,10.0,11.0,100,0.12,,,0.08,TxWx,2013-05-15 12:03:00,
2013-05-15 07:05:00,74.0,74.0,29.97,SSW,202,13.0,15.0,100,0.12,,,0.08,TxWx,2013-05-15 12:05:00,
2013-05-15 07:06:00,74.0,74.0,29.96,SSW,202,16.0,17.0,100,0.12,,,0.09,TxWx,2013-05-15 12:06:00,
2013-05-15 07:10:00,74.0,74.0,29.95,SSE,157,13.0,13.0,100,0.12,,,0.09,TxWx,2013-05-15 12:10:00,
2013-05-15 07:11:00,74.0,74.0,29.95,SE,135,27.0,27.0,100,0.12,,,0.09,TxWx,2013-05-15 12:11:00,
2013-05-15 07:12:00,74.0,74.0,29.95,SSE,157,14.0,16.0,100,0.12,,,0.09,TxWx,2013-05-15 12:12:00,
2013-05-15 07:15:00,74.0,74.0,29.95,South,180,16.0,19.0,100,0.12,,,0.09,TxWx,2013-05-15 12:15:00,
2013-05-15 07:16:00,74.0,74.0,29.95,SE,135,16.0,18.0,100,0.12,,,0.09,TxWx,2013-05-15 12:16:00,
2013-05-15 07:17:00,74.0,74.0,29.95,SSE,157,14.0,20.0,100,0.12,,,0.09,TxWx,2013-05-15 12:17:00,
2013-05-15 07:19:00,74.0,74.0,29.95,SSW,202,15.0,17.0,100,0.12,,,0.09,TxWx,2013-05-15 12:19:00,
2013-05-15 07:21:00,74.0,74.0,29.96,South,180,24.0,24.0,100,0.00,,,0.09,TxWx,2013-05-15 12:21:00,
2013-05-15 07:22:00,74.0,74.0,29.96,SE,135,12.0,13.0,100,0.00,,,0.09,TxWx,2013-05-15 12:22:00,
2013-05-15 07:25:00,74.0,74.0,29.96,SSW,202,27.0,27.0,100,0.00,,,0.10,TxWx,2013-05-15 12:25:00,
2013-05-15 07:27:00,74.0,74.0,29.96,South,180,7.0,9.0,100,0.00,,,0.10,TxWx,2013-05-15 12:27:00,
2013-05-15 07:30:00,74.0,74.0,29.96,SSW,202,15.0,15.0,100,0.00,,,0.10,TxWx,2013-05-15 12:30:00,
2013-05-15 07:32:00,74.0,74.0,29.97,SSW,202,14.0,14.0,100,0.06,,,0.10,TxWx,2013-05-15 12:32:00,
2013-05-15 07:35:00,74.0,74.0,29.96,South,180,19.0,19.0,100,0.06,,,0.10,TxWx,2013-05-15 12:35:00,
2013-05-15 07:36:00,74.0,74.0,29.97,SSE,157,9.0,9.0,100,0.06,,,0.10,TxWx,2013-05-15 12:36:00,
2013-05-15 07:38:00,74.0,74.0,29.97,SSW,202,13.0,14.0,100,0.06,,,0.10,TxWx,2013-05-15 12:38:00,
2013-05-15 07:40:00,74.0,74.0,29.97,South,180,6.0,8.0,100,0.06,,,0.10,TxWx,2013-05-15 12:40:00,
2013-05-15 07:41:00,74.0,74.0,29.97,SSW,202,18.0,19.0,100,0.00,,,0.10,TxWx,2013-05-15 12:41:00,
2013-05-15 07:44:00,74.0,74.0,29.98,SE,135,10.0,11.0,100,0.00,,,0.10,TxWx,2013-05-15 12:44:00,
2013-05-15 07:46:00,74.0,74.0,29.98,SSW,202,16.0,19.0,100,0.00,,,0.10,TxWx,2013-05-15 12:46:00,
2013-05-15 07:48:00,74.0,74.0,29.98,SE,135,16.0,16.0,100,0.00,,,0.10,TxWx,2013-05-15 12:48:00,
2013-05-15 07:51:00,74.0,74.0,29.98,SSW,202,20.0,20.0,100,0.00,,,0.10,TxWx,2013-05-15 12:51:00,
2013-05-15 07:52:00,74.0,74.0,29.98,SSW,202,11.0,11.0,100,0.00,,,0.10,TxWx,2013-05-15 12:52:00,
2013-05-15 07:55:00,74.0,74.0,29.98,South,180,17.0,17.0,100,0.00,,,0.10,TxWx,2013-05-15 12:55:00,
2013-05-15 07:57:00,74.0,74.0,29.98,South,180,10.0,12.0,100,0.00,,,0.10,TxWx,2013-05-15 12:57:00,
2013-05-15 07:58:00,74.0,74.0,29.99,South,180,13.0,13.0,100,0.00,,,0.10,TxWx,2013-05-15 12:58:00,
2013-05-15 07:59:00,74.0,74.0,29.98,SSW,202,21.0,21.0,100,0.00,,,0.10,TxWx,2013-05-15 12:59:00,
2013-05-15 08:01:00,74.0,74.0,29.99,SSW,202,14.0,14.0,100,0.00,,,0.10,TxWx,2013-05-15 13:01:00,
2013-05-15 08:02:00,74.0,74.0,29.99,SSW,202,10.0,11.0,100,0.00,,,0.10,TxWx,2013-05-15 13:02:00,
2013-05-15 08:04:00,74.0,74.0,29.99,SSW,202,8.0,8.0,100,0.00,,,0.10,TxWx,2013-05-15 13:04:00,
2013-05-15 08:06:00,74.0,74.0,30.00,SSW,202,13.0,14.0,100,0.00,,,0.10,TxWx,2013-05-15 13:06:00,
2013-05-15 08:07:00,74.0,74.0,29.99,SSE,157,13.0,16.0,100,0.00,,,0.10,TxWx,2013-05-15 13:07:00,
2013-05-15 08:09:00,74.0,74.0,30.00,South,180,7.0,7.0,100,0.00,,,0.10,TxWx,2013-05-15 13:09:00,
2013-05-15 08:10:00,74.0,74.0,30.00,South,180,7.0,9.0,100,0.00,,,0.10,TxWx,2013-05-15 13:10:00,
2013-05-15 08:13:00,74.0,74.0,30.00,South,180,10.0,11.0,100,0.00,,,0.10,TxWx,2013-05-15 13:13:00,
2013-05-15 08:17:00,74.0,74.0,30.00,SSE,157,5.0,5.0,100,0.00,,,0.10,TxWx,2013-05-15 13:17:00,
2013-05-15 08:18:00,74.0,74.0,30.00,SSW,202,8.0,8.0,100,0.00,,,0.10,TxWx,2013-05-15 13:18:00,
2013-05-15 08:23:00,74.0,74.0,30.00,South,180,8.0,9.0,100,0.00,,,0.10,TxWx,2013-05-15 13:23:00,
2013-05-15 08:25:00,74.0,74.0,30.00,SSE,157,8.0,8.0,100,0.00,,,0.10,TxWx,2013-05-15 13:25:00,
2013-05-15 08:27:00,74.0,74.0,30.00,South,180,12.0,12.0,100,0.00,,,0.10,TxWx,2013-05-15 13:27:00,
2013-05-15 08:29:00,74.0,74.0,29.99,SSE,157,6.0,6.0,100,0.00,,,0.10,TxWx,2013-05-15 13:29:00,
2013-05-15 08:34:00,74.0,74.0,29.99,South,180,11.0,11.0,100,0.00,,,0.10,TxWx,2013-05-15 13:34:00,
2013-05-15 08:35:00,74.0,74.0,29.99,South,180,13.0,13.0,100,0.00,,,0.10,TxWx,2013-05-15 13:35:00,
2013-05-15 08:40:00,74.0,74.0,29.99,SSE,157,9.0,9.0,100,0.00,,,0.10,TxWx,2013-05-15 13:40:00,
2013-05-15 08:42:00,74.0,74.0,29.99,South,180,8.0,11.0,100,0.00,,,0.10,TxWx,2013-05-15 13:42:00,
2013-05-15 08:45:00,74.0,74.0,29.99,SSE,157,7.0,9.0,100,0.00,,,0.10,TxWx,2013-05-15 13:45:00,
2013-05-15 08:46:00,74.0,74.0,29.99,SE,135,8.0,9.0,100,0.00,,,0.10,TxWx,2013-05-15 13:46:00,
2013-05-15 08:47:00,74.0,74.0,29.99,South,180,10.0,11.0,100,0.00,,,0.10,TxWx,2013-05-15 13:47:00,
2013-05-15 08:48:00,74.0,74.0,29.99,SSE,157,10.0,10.0,100,0.00,,,0.10,TxWx,2013-05-15 13:48:00,
2013-05-15 08:51:00,74.0,74.0,29.99,South,180,11.0,11.0,99,0.00,,,0.10,TxWx,2013-05-15 13:51:00,
2013-05-15 08:53:00,75.0,75.0,29.99,SSE,157,13.0,13.0,100,0.00,,,0.10,TxWx,2013-05-15 13:53:00,
2013-05-15 08:54:00,75.0,75.0,29.99,SSE,157,7.0,8.0,100,0.00,,,0.10,TxWx,2013-05-15 13:54:00,
2013-05-15 08:56:00,75.0,75.0,30.00,SSE,157,16.0,19.0,99,0.00,,,0.10,TxWx,2013-05-15 13:56:00,
2013-05-15 08:58:00,75.0,75.0,29.99,SSE,157,10.0,10.0,99,0.00,,,0.10,TxWx,2013-05-15 13:58:00,
2013-05-15 08:59:00,75.0,75.0,30.00,South,180,13.0,15.0,99,0.00,,,0.10,TxWx,2013-05-15 13:59:00,
2013-05-15 09:01:00,75.0,75.0,30.00,South,180,9.0,11.0,99,0.00,,,0.10,TxWx,2013-05-15 14:01:00,
2013-05-15 09:03:00,75.0,75.0,30.00,SSW,202,7.0,9.0,99,0.00,,,0.10,TxWx,2013-05-15 14:03:00,
2013-05-15 09:04:00,75.0,75.0,30.00,SSW,202,6.0,7.0,99,0.00,,,0.10,TxWx,2013-05-15 14:04:00,
2013-05-15 09:05:00,75.0,75.0,30.00,SSE,157,6.0,6.0,99,0.00,,,0.10,TxWx,2013-05-15 14:05:00,
2013-05-15 09:09:00,75.0,75.0,30.00,WSW,247,8.0,10.0,99,0.00,,,0.10,TxWx,2013-05-15 14:09:00,
2013-05-15 09:10:00,75.0,75.0,30.00,South,180,15.0,15.0,99,0.00,,,0.10,TxWx,2013-05-15 14:10:00,
2013-05-15 09:11:00,75.0,75.0,30.00,South,180,14.0,14.0,99,0.00,,,0.10,TxWx,2013-05-15 14:11:00,
2013-05-15 09:12:00,75.0,75.0,30.00,SSW,202,18.0,18.0,99,0.00,,,0.10,TxWx,2013-05-15 14:12:00,
2013-05-15 09:15:00,75.0,75.0,30.00,SSW,202,11.0,14.0,99,0.00,,,0.10,TxWx,2013-05-15 14:15:00,
2013-05-15 09:16:00,75.0,75.0,30.00,South,180,11.0,11.0,99,0.00,,,0.10,TxWx,2013-05-15 14:16:00,
2013-05-15 09:18:00,75.0,75.0,30.00,SSE,157,10.0,10.0,99,0.00,,,0.10,TxWx,2013-05-15 14:18:00,
2013-05-15 09:21:00,75.0,75.0,30.01,South,180,9.0,11.0,99,0.00,,,0.10,TxWx,2013-05-15 14:21:00,
2013-05-15 09:24:00,75.0,75.0,30.01,SSW,202,9.0,10.0,99,0.00,,,0.10,TxWx,2013-05-15 14:24:00,
2013-05-15 09:27:00,75.0,74.0,30.01,SSW,202,11.0,11.0,98,0.00,,,0.10,TxWx,2013-05-15 14:27:00,
2013-05-15 09:28:00,75.0,74.0,30.01,SSW,202,11.0,13.0,98,0.00,,,0.10,TxWx,2013-05-15 14:28:00,
2013-05-15 09:30:00,75.0,74.0,30.01,SSW,202,19.0,21.0,98,0.00,,,0.10,TxWx,2013-05-15 14:30:00,
2013-05-15 09:32:00,76.0,75.0,30.01,SW,225,8.0,8.0,98,0.00,,,0.10,TxWx,2013-05-15 14:32:00,
2013-05-15 09:34:00,76.0,75.0,30.01,SSW,202,8.0,8.0,97,0.00,,,0.10,TxWx,2013-05-15 14:34:00,
2013-05-15 09:35:00,76.0,75.0,30.01,South,180,14.0,14.0,97,0.00,,,0.10,TxWx,2013-05-15 14:35:00,
2013-05-15 09:36:00,76.0,75.0,30.01,SSE,157,13.0,18.0,97,0.00,,,0.10,TxWx,2013-05-15 14:36:00,
2013-05-15 09:39:00,76.0,75.0,30.02,SW,225,11.0,12.0,97,0.00,,,0.10,TxWx,2013-05-15 14:39:00,
2013-05-15 09:40:00,76.0,75.0,30.02,SSW,202,13.0,14.0,97,0.00,,,0.10,TxWx,2013-05-15 14:40:00,
2013-05-15 09:41:00,76.0,75.0,30.02,South,180,14.0,14.0,97,0.00,,,0.10,TxWx,2013-05-15 14:41:00,
2013-05-15 09:44:00,76.0,75.0,30.02,South,180,23.0,23.0,96,0.00,,,0.10,TxWx,2013-05-15 14:44:00,
2013-05-15 09:45:00,76.0,75.0,30.02,South,180,10.0,12.0,96,0.00,,,0.10,TxWx,2013-05-15 14:45:00,
2013-05-15 09:50:00,76.0,75.0,30.02,SSW,202,12.0,13.0,96,0.00,,,0.10,TxWx,2013-05-15 14:50:00,
2013-05-15 09:51:00,76.0,75.0,30.02,SW,225,10.0,11.0,96,0.00,,,0.10,TxWx,2013-05-15 14:51:00,
2013-05-15 09:55:00,76.0,75.0,30.02,SSW,202,11.0,11.0,96,0.00,,,0.10,TxWx,2013-05-15 14:55:00,
2013-05-15 09:56:00,76.0,75.0,30.02,SSW,202,10.0,11.0,96,0.00,,,0.10,TxWx,2013-05-15 14:56:00,
2013-05-15 09:57:00,76.0,75.0,30.02,South,180,11.0,11.0,96,0.00,,,0.10,TxWx,2013-05-15 14:57:00,
2013-05-15 09:59:00,76.0,75.0,30.02,SW,225,10.0,11.0,96,0.00,,,0.10,TxWx,2013-05-15 14:59:00,
2013-05-15 10:01:00,76.0,75.0,30.02,South,180,12.0,12.0,96,0.00,,,0.10,TxWx,2013-05-15 15:01:00,
2013-05-15 10:03:00,76.0,75.0,30.02,SW,225,6.0,7.0,96,0.00,,,0.10,TxWx,2013-05-15 15:03:00,
2013-05-15 10:04:00,76.0,75.0,30.02,SSW,202,7.0,7.0,96,0.00,,,0.10,TxWx,2013-05-15 15:04:00,
2013-05-15 10:06:00,76.0,75.0,30.02,SSE,157,11.0,12.0,96,0.00,,,0.10,TxWx,2013-05-15 15:06:00,
2013-05-15 10:07:00,76.0,75.0,30.02,SSW,202,8.0,8.0,96,0.00,,,0.10,TxWx,2013-05-15 15:07:00,
2013-05-15 10:09:00,76.0,75.0,30.02,SSW,202,13.0,13.0,96,0.00,,,0.10,TxWx,2013-05-15 15:09:00,
2013-05-15 10:12:00,76.0,75.0,30.02,SSW,202,10.0,10.0,96,0.00,,,0.10,TxWx,2013-05-15 15:12:00,
2013-05-15 10:13:00,76.0,75.0,30.02,SSW,202,9.0,9.0,96,0.00,,,0.10,TxWx,2013-05-15 15:13:00,
2013-05-15 10:14:00,76.0,75.0,30.02,South,180,8.0,8.0,96,0.00,,,0.10,TxWx,2013-05-15 15:14:00,
2013-05-15 10:15:00,76.0,75.0,30.02,South,180,9.0,10.0,96,0.00,,,0.10,TxWx,2013-05-15 15:15:00,
2013-05-15 10:19:00,76.0,75.0,30.02,South,180,5.0,6.0,96,0.00,,,0.10,TxWx,2013-05-15 15:19:00,
2013-05-15 10:20:00,76.0,75.0,30.02,South,180,5.0,6.0,96,0.00,,,0.10,TxWx,2013-05-15 15:20:00,
2013-05-15 10:21:00,76.0,74.0,30.02,South,180,7.0,7.0,95,0.00,,,0.10,TxWx,2013-05-15 15:21:00,
2013-05-15 10:26:00,76.0,74.0,30.02,South,180,10.0,10.0,95,0.00,,,0.10,TxWx,2013-05-15 15:26:00,
2013-05-15 10:27:00,76.0,74.0,30.02,SSW,202,12.0,12.0,95,0.00,,,0.10,TxWx,2013-05-15 15:27:00,
2013-05-15 10:28:00,76.0,74.0,30.01,SSE,157,10.0,10.0,95,0.00,,,0.10,TxWx,2013-05-15 15:28:00,
2013-05-15 10:31:00,76.0,74.0,30.01,SSW,202,11.0,11.0,95,0.00,,,0.10,TxWx,2013-05-15 15:31:00,
2013-05-15 10:34:00,76.0,74.0,30.01,South,180,10.0,11.0,94,0.00,,,0.10,TxWx,2013-05-15 15:34:00,
2013-05-15 10:36:00,77.0,75.0,30.02,SSE,157,5.0,6.0,95,0.00,,,0.10,TxWx,2013-05-15 15:36:00,
2013-05-15 10:38:00,77.0,75.0,30.02,WSW,247,10.0,11.0,95,0.00,,,0.10,TxWx,2013-05-15 15:38:00,
2013-05-15 10:39:00,76.0,74.0,30.02,SSE,157,8.0,11.0,94,0.00,,,0.10,TxWx,2013-05-15 15:39:00,
2013-05-15 10:40:00,77.0,75.0,30.02,SSW,202,11.0,11.0,94,0.00,,,0.10,TxWx,2013-05-15 15:40:00,
2013-05-15 10:42:00,77.0,75.0,30.02,SSE,157,8.0,8.0,94,0.00,,,0.10,TxWx,2013-05-15 15:42:00,
2013-05-15 10:43:00,77.0,75.0,30.02,SSW,202,4.0,5.0,94,0.00,,,0.10,TxWx,2013-05-15 15:43:00,
2013-05-15 10:45:00,77.0,75.0,30.01,SSE,157,8.0,10.0,94,0.00,,,0.10,TxWx,2013-05-15 15:45:00,
2013-05-15 10:47:00,77.0,75.0,30.01,SE,135,9.0,9.0,94,0.00,,,0.10,TxWx,2013-05-15 15:47:00,
2013-05-15 10:49:00,77.0,75.0,30.02,WSW,247,6.0,6.0,94,0.00,,,0.10,TxWx,2013-05-15 15:49:00,
2013-05-15 10:50:00,77.0,75.0,30.01,SSW,202,9.0,9.0,93,0.00,,,0.10,TxWx,2013-05-15 15:50:00,
2013-05-15 10:52:00,77.0,75.0,30.01,South,180,16.0,18.0,93,0.00,,,0.10,TxWx,2013-05-15 15:52:00,
2013-05-15 10:55:00,77.0,74.0,30.01,South,180,8.0,11.0,92,0.00,,,0.10,TxWx,2013-05-15 15:55:00,
2013-05-15 10:56:00,77.0,74.0,30.01,SSW,202,11.0,11.0,92,0.00,,,0.10,TxWx,2013-05-15 15:56:00,
2013-05-15 10:57:00,78.0,75.0,30.01,SSW,202,8.0,12.0,92,0.00,,,0.10,TxWx,2013-05-15 15:57:00,
2013-05-15 11:00:00,77.0,74.0,30.02,South,180,13.0,13.0,92,0.00,,,0.10,TxWx,2013-05-15 16:00:00,
2013-05-15 11:02:00,78.0,75.0,30.01,SSW,202,11.0,13.0,92,0.00,,,0.10,TxWx,2013-05-15 16:02:00,
2013-05-15 11:04:00,77.0,74.0,30.01,South,180,10.0,11.0,92,0.00,,,0.10,TxWx,2013-05-15 16:04:00,
2013-05-15 11:05:00,77.0,74.0,30.01,SW,225,8.0,8.0,91,0.00,,,0.10,TxWx,2013-05-15 16:05:00,
2013-05-15 11:08:00,77.0,74.0,30.02,SSW,202,16.0,17.0,91,0.00,,,0.10,TxWx,2013-05-15 16:08:00,
2013-05-15 11:09:00,77.0,74.0,30.02,SSW,202,16.0,16.0,91,0.00,,,0.10,TxWx,2013-05-15 16:09:00,
2013-05-15 11:10:00,77.0,74.0,30.02,SSW,202,10.0,10.0,91,0.00,,,0.10,TxWx,2013-05-15 16:10:00,
2013-05-15 11:13:00,77.0,74.0,30.02,SSE,157,11.0,11.0,91,0.00,,,0.10,TxWx,2013-05-15 16:13:00,
2013-05-15 11:14:00,77.0,74.0,30.02,South,180,13.0,13.0,91,0.00,,,0.10,TxWx,2013-05-15 16:14:00,
2013-05-15 11:16:00,77.0,74.0,30.02,South,180,13.0,13.0,91,0.00,,,0.10,TxWx,2013-05-15 16:16:00,
2013-05-15 11:21:00,77.0,74.0,30.02,SSE,157,10.0,13.0,91,0.00,,,0.10,TxWx,2013-05-15 16:21:00,
2013-05-15 11:22:00,77.0,74.0,30.02,SW,225,9.0,10.0,91,0.00,,,0.10,TxWx,2013-05-15 16:22:00,
2013-05-15 11:26:00,77.0,74.0,30.02,SSW,202,11.0,11.0,91,0.00,,,0.10,TxWx,2013-05-15 16:26:00,
2013-05-15 11:27:00,77.0,74.0,30.02,SE,135,10.0,10.0,91,0.00,,,0.10,TxWx,2013-05-15 16:27:00,
2013-05-15 11:28:00,77.0,74.0,30.02,SSW,202,8.0,10.0,91,0.00,,,0.10,TxWx,2013-05-15 16:28:00,
2013-05-15 11:31:00,77.0,74.0,30.02,South,180,7.0,7.0,91,0.00,,,0.10,TxWx,2013-05-15 16:31:00,
2013-05-15 11:32:00,77.0,74.0,30.02,SSW,202,7.0,7.0,91,0.00,,,0.10,TxWx,2013-05-15 16:32:00,
2013-05-15 11:34:00,77.0,74.0,30.02,South,180,10.0,10.0,91,0.00,,,0.10,TxWx,2013-05-15 16:34:00,
2013-05-15 11:38:00,78.0,75.0,30.02,SSW,202,5.0,6.0,91,0.00,,,0.10,TxWx,2013-05-15 16:38:00,
2013-05-15 11:39:00,78.0,75.0,30.02,SSW,202,10.0,10.0,91,0.00,,,0.10,TxWx,2013-05-15 16:39:00,
2013-05-15 11:40:00,78.0,75.0,30.02,South,180,12.0,14.0,91,0.00,,,0.10,TxWx,2013-05-15 16:40:00,
2013-05-15 11:43:00,78.0,75.0,30.02,SSE,157,8.0,8.0,90,0.00,,,0.10,TxWx,2013-05-15 16:43:00,
2013-05-15 11:44:00,78.0,75.0,30.02,SSW,202,11.0,11.0,90,0.00,,,0.10,TxWx,2013-05-15 16:44:00,
2013-05-15 11:47:00,78.0,75.0,30.02,South,180,7.0,8.0,90,0.00,,,0.10,TxWx,2013-05-15 16:47:00,
2013-05-15 11:48:00,78.0,75.0,30.02,South,180,5.0,5.0,90,0.00,,,0.10,TxWx,2013-05-15 16:48:00,
2013-05-15 11:49:00,78.0,75.0,30.02,SSW,202,13.0,14.0,90,0.00,,,0.10,TxWx,2013-05-15 16:49:00,
2013-05-15 11:54:00,78.0,75.0,30.02,SSW,202,14.0,14.0,90,0.00,,,0.10,TxWx,2013-05-15 16:54:00,
2013-05-15 11:55:00,77.0,74.0,30.02,SSW,202,11.0,11.0,90,0.00,,,0.10,TxWx,2013-05-15 16:55:00,
2013-05-15 11:59:00,77.0,74.0,30.02,South,180,8.0,10.0,90,0.00,,,0.10,TxWx,2013-05-15 16:59:00,
2013-05-15 12:03:00,77.0,74.0,30.02,SW,225,10.0,11.0,90,0.00,,,0.10,TxWx,2013-05-15 17:03:00,
2013-05-15 12:05:00,77.0,74.0,30.02,SSW,202,13.0,13.0,90,0.00,,,0.10,TxWx,2013-05-15 17:05:00,
2013-05-15 12:06:00,77.0,74.0,30.02,South,180,8.0,9.0,91,0.00,,,0.10,TxWx,2013-05-15 17:06:00,
2013-05-15 12:08:00,77.0,74.0,30.02,SSE,157,11.0,11.0,91,0.00,,,0.10,TxWx,2013-05-15 17:08:00,
2013-05-15 12:10:00,77.0,74.0,30.02,SSW,202,11.0,14.0,91,0.00,,,0.10,TxWx,2013-05-15 17:10:00,
2013-05-15 12:11:00,77.0,74.0,30.02,SSW,202,10.0,10.0,91,0.00,,,0.10,TxWx,2013-05-15 17:11:00,
2013-05-15 12:13:00,77.0,74.0,30.02,South,180,10.0,10.0,91,0.00,,,0.10,TxWx,2013-05-15 17:13:00,
2013-05-15 12:17:00,77.0,74.0,30.02,SSW,202,10.0,11.0,91,0.00,,,0.10,TxWx,2013-05-15 17:17:00,
2013-05-15 12:18:00,77.0,74.0,30.02,SE,135,14.0,16.0,91,0.00,,,0.10,TxWx,2013-05-15 17:18:00,
2013-05-15 12:19:00,77.0,74.0,30.02,South,180,13.0,15.0,91,0.00,,,0.10,TxWx,2013-05-15 17:19:00,
2013-05-15 12:23:00,77.0,74.0,30.02,South,180,12.0,14.0,91,0.00,,,0.10,TxWx,2013-05-15 17:23:00,
2013-05-15 12:24:00,77.0,74.0,30.01,SSE,157,19.0,19.0,91,0.00,,,0.10,TxWx,2013-05-15 17:24:00,
2013-05-15 12:27:00,77.0,74.0,30.01,SE,135,11.0,11.0,91,0.00,,,0.10,TxWx,2013-05-15 17:27:00,
2013-05-15 12:30:00,77.0,74.0,30.01,SSE,157,9.0,11.0,92,0.00,,,0.10,TxWx,2013-05-15 17:30:00,
2013-05-15 12:32:00,77.0,74.0,30.01,SSW,202,16.0,16.0,92,0.00,,,0.10,TxWx,2013-05-15 17:32:00,
2013-05-15 12:35:00,77.0,74.0,30.01,SSE,157,11.0,14.0,91,0.00,,,0.10,TxWx,2013-05-15 17:35:00,
2013-05-15 12:37:00,77.0,74.0,30.01,South,180,7.0,9.0,92,0.00,,,0.10,TxWx,2013-05-15 17:37:00,
2013-05-15 12:38:00,77.0,74.0,30.01,South,180,13.0,14.0,92,0.00,,,0.10,TxWx,2013-05-15 17:38:00,
2013-05-15 12:40:00,77.0,74.0,30.01,SSW,202,10.0,10.0,92,0.00,,,0.10,TxWx,2013-05-15 17:40:00,
2013-05-15 12:41:00,77.0,74.0,30.01,SSE,157,11.0,12.0,92,0.00,,,0.10,TxWx,2013-05-15 17:41:00,
2013-05-15 12:43:00,76.0,73.0,30.01,South,180,16.0,16.0,92,0.00,,,0.10,TxWx,2013-05-15 17:43:00,
2013-05-15 12:45:00,76.0,73.0,30.01,South,180,11.0,11.0,92,0.00,,,0.10,TxWx,2013-05-15 17:45:00,
2013-05-15 12:46:00,76.0,73.0,30.01,SSW,202,9.0,11.0,92,0.00,,,0.10,TxWx,2013-05-15 17:46:00,
2013-05-15 12:48:00,76.0,73.0,30.01,South,180,11.0,11.0,92,0.00,,,0.10,TxWx,2013-05-15 17:48:00,
2013-05-15 12:50:00,76.0,73.0,30.01,South,180,10.0,13.0,92,0.00,,,0.10,TxWx,2013-05-15 17:50:00,
2013-05-15 12:51:00,76.0,74.0,30.00,South,180,13.0,13.0,93,0.00,,,0.10,TxWx,2013-05-15 17:51:00,
2013-05-15 12:52:00,76.0,74.0,30.01,SSE,157,10.0,10.0,93,0.00,,,0.10,TxWx,2013-05-15 17:52:00,
2013-05-15 12:54:00,76.0,73.0,30.01,South,180,13.0,13.0,92,0.00,,,0.10,TxWx,2013-05-15 17:54:00,
2013-05-15 12:56:00,76.0,73.0,30.00,SW,225,6.0,9.0,92,0.00,,,0.10,TxWx,2013-05-15 17:56:00,
2013-05-15 12:57:00,76.0,74.0,30.00,SSW,202,13.0,13.0,93,0.00,,,0.10,TxWx,2013-05-15 17:57:00,
2013-05-15 12:58:00,77.0,75.0,30.00,SSE,157,6.0,8.0,93,0.00,,,0.10,TxWx,2013-05-15 17:58:00,
2013-05-15 12:59:00,76.0,73.0,30.00,SSW,202,10.0,11.0,92,0.00,,,0.10,TxWx,2013-05-15 17:59:00,
2013-05-15 13:01:00,77.0,74.0,30.00,SSE,157,10.0,10.0,92,0.00,,,0.10,TxWx,2013-05-15 18:01:00,
2013-05-15 13:02:00,77.0,74.0,30.00,South,180,7.0,8.0,92,0.00,,,0.10,TxWx,2013-05-15 18:02:00,
2013-05-15 13:03:00,77.0,74.0,30.00,SSW,202,19.0,19.0,92,0.00,,,0.10,TxWx,2013-05-15 18:03:00,
2013-05-15 13:05:00,77.0,74.0,30.00,SSW,202,11.0,13.0,92,0.00,,,0.10,TxWx,2013-05-15 18:05:00,
2013-05-15 13:07:00,77.0,74.0,30.00,South,180,10.0,10.0,92,0.00,,,0.10,TxWx,2013-05-15 18:07:00,
2013-05-15 13:08:00,77.0,74.0,30.00,SSW,202,9.0,10.0,92,0.00,,,0.10,TxWx,2013-05-15 18:08:00,
2013-05-15 13:10:00,77.0,74.0,30.00,ESE,112,5.0,6.0,92,0.00,,,0.10,TxWx,2013-05-15 18:10:00,
2013-05-15 13:11:00,77.0,74.0,30.00,SSE,157,13.0,13.0,92,0.00,,,0.10,TxWx,2013-05-15 18:11:00,
2013-05-15 13:14:00,77.0,74.0,30.00,SSW,202,9.0,11.0,92,0.00,,,0.10,TxWx,2013-05-15 18:14:00,
2013-05-15 13:15:00,77.0,74.0,30.00,SSE,157,10.0,11.0,92,0.00,,,0.10,TxWx,2013-05-15 18:15:00,
2013-05-15 13:18:00,77.0,74.0,30.00,SSE,157,10.0,13.0,92,0.00,,,0.10,TxWx,2013-05-15 18:18:00,
2013-05-15 13:20:00,77.0,74.0,30.00,SSW,202,11.0,12.0,92,0.00,,,0.10,TxWx,2013-05-15 18:20:00,
2013-05-15 13:21:00,77.0,74.0,29.99,SE,135,11.0,11.0,92,0.00,,,0.10,TxWx,2013-05-15 18:21:00,
2013-05-15 13:25:00,77.0,74.0,29.99,WSW,247,9.0,9.0,92,0.00,,,0.10,TxWx,2013-05-15 18:25:00,
2013-05-15 13:26:00,77.0,74.0,30.00,South,180,13.0,13.0,92,0.00,,,0.10,TxWx,2013-05-15 18:26:00,
2013-05-15 13:27:00,77.0,74.0,29.99,South,180,13.0,13.0,92,0.00,,,0.10,TxWx,2013-05-15 18:27:00,
2013-05-15 13:31:00,77.0,74.0,29.99,South,180,5.0,6.0,92,0.00,,,0.10,TxWx,2013-05-15 18:31:00,
2013-05-15 13:32:00,77.0,74.0,29.99,SSE,157,8.0,8.0,92,0.00,,,0.10,TxWx,2013-05-15 18:32:00,
2013-05-15 13:34:00,77.0,74.0,29.99,SSW,202,10.0,10.0,92,0.00,,,0.10,TxWx,2013-05-15 18:34:00,
2013-05-15 13:36:00,77.0,74.0,29.99,South,180,9.0,9.0,92,0.00,,,0.10,TxWx,2013-05-15 18:36:00,
2013-05-15 13:38:00,77.0,74.0,29.99,SSE,157,10.0,10.0,92,0.00,,,0.10,TxWx,2013-05-15 18:38:00,
2013-05-15 13:39:00,77.0,74.0,29.99,SW,225,11.0,14.0,92,0.00,,,0.10,TxWx,2013-05-15 18:39:00,
2013-05-15 13:40:00,77.0,74.0,29.99,South,180,16.0,17.0,92,0.00,,,0.10,TxWx,2013-05-15 18:40:00,
2013-05-15 13:42:00,77.0,74.0,29.99,South,180,11.0,13.0,92,0.00,,,0.10,TxWx,2013-05-15 18:42:00,
2013-05-15 13:44:00,77.0,74.0,29.99,SSW,202,17.0,17.0,92,0.00,,,0.10,TxWx,2013-05-15 18:44:00,
2013-05-15 13:46:00,77.0,74.0,29.99,SSE,157,12.0,12.0,91,0.00,,,0.10,TxWx,2013-05-15 18:46:00,
2013-05-15 13:47:00,77.0,74.0,29.99,South,180,11.0,11.0,91,0.00,,,0.10,TxWx,2013-05-15 18:47:00,
2013-05-15 13:50:00,77.0,74.0,29.99,SSE,157,10.0,14.0,91,0.00,,,0.10,TxWx,2013-05-15 18:50:00,
2013-05-15 13:53:00,77.0,74.0,29.99,SSW,202,17.0,17.0,91,0.00,,,0.10,TxWx,2013-05-15 18:53:00,
2013-05-15 13:56:00,77.0,74.0,29.99,SSW,202,8.0,10.0,91,0.00,,,0.10,TxWx,2013-05-15 18:56:00,
2013-05-15 13:57:00,77.0,74.0,29.99,SSW,202,11.0,13.0,91,0.00,,,0.10,TxWx,2013-05-15 18:57:00,
2013-05-15 13:59:00,77.0,74.0,29.99,SSW,202,18.0,18.0,91,0.00,,,0.10,TxWx,2013-05-15 18:59:00,
2013-05-15 14:01:00,77.0,74.0,29.99,SSE,157,11.0,11.0,91,0.00,,,0.10,TxWx,2013-05-15 19:01:00,
2013-05-15 14:03:00,77.0,74.0,29.99,SE,135,12.0,21.0,91,0.00,,,0.10,TxWx,2013-05-15 19:03:00,
2013-05-15 14:05:00,77.0,74.0,29.98,SSW,202,13.0,13.0,92,0.00,,,0.10,TxWx,2013-05-15 19:05:00,
2013-05-15 14:06:00,77.0,74.0,29.98,SW,225,13.0,18.0,92,0.00,,,0.10,TxWx,2013-05-15 19:06:00,
2013-05-15 14:10:00,77.0,74.0,29.98,SSW,202,16.0,17.0,92,0.00,,,0.10,TxWx,2013-05-15 19:10:00,
2013-05-15 14:12:00,76.0,73.0,29.98,SSW,202,14.0,15.0,92,0.00,,,0.10,TxWx,2013-05-15 19:12:00,
2013-05-15 14:13:00,77.0,74.0,29.98,SSW,202,16.0,16.0,92,0.00,,,0.10,TxWx,2013-05-15 19:13:00,
2013-05-15 14:15:00,77.0,74.0,29.98,South,180,8.0,8.0,92,0.00,,,0.10,TxWx,2013-05-15 19:15:00,
2013-05-15 14:16:00,77.0,74.0,29.98,SSE,157,18.0,18.0,92,0.00,,,0.10,TxWx,2013-05-15 19:16:00,
2013-05-15 14:17:00,77.0,74.0,29.98,SSW,202,9.0,10.0,92,0.00,,,0.10,TxWx,2013-05-15 19:17:00,
2013-05-15 14:20:00,77.0,74.0,29.98,SSE,157,9.0,9.0,92,0.00,,,0.10,TxWx,2013-05-15 19:20:00,
2013-05-15 14:22:00,77.0,74.0,29.98,WSW,247,11.0,15.0,92,0.00,,,0.10,TxWx,2013-05-15 19:22:00,
2013-05-15 14:23:00,77.0,74.0,29.98,South,180,13.0,14.0,92,0.00,,,0.10,TxWx,2013-05-15 19:23:00,
2013-05-15 14:24:00,77.0,74.0,29.98,WSW,247,6.0,6.0,92,0.00,,,0.10,TxWx,2013-05-15 19:24:00,
2013-05-15 14:26:00,77.0,74.0,29.98,South,180,14.0,14.0,92,0.00,,,0.10,TxWx,2013-05-15 19:26:00,
2013-05-15 14:27:00,77.0,74.0,29.98,SSE,157,6.0,7.0,92,0.00,,,0.10,TxWx,2013-05-15 19:27:00,
2013-05-15 14:29:00,77.0,74.0,29.98,South,180,10.0,12.0,92,0.00,,,0.10,TxWx,2013-05-15 19:29:00,
2013-05-15 14:31:00,77.0,74.0,29.98,South,180,11.0,12.0,92,0.00,,,0.10,TxWx,2013-05-15 19:31:00,
2013-05-15 14:34:00,77.0,74.0,29.98,South,180,14.0,14.0,92,0.00,,,0.10,TxWx,2013-05-15 19:34:00,
2013-05-15 14:35:00,77.0,73.0,29.97,SSW,202,14.0,18.0,92,0.00,,,0.10,TxWx,2013-05-15 19:35:00,
2013-05-15 14:36:00,77.0,74.0,29.97,South,180,18.0,18.0,92,0.00,,,0.10,TxWx,2013-05-15 19:36:00,
2013-05-15 14:40:00,77.0,74.0,29.97,SSW,202,11.0,13.0,92,0.00,,,0.10,TxWx,2013-05-15 19:40:00,
2013-05-15 14:41:00,77.0,74.0,29.97,SSW,202,14.0,14.0,92,0.00,,,0.10,TxWx,2013-05-15 19:41:00,
2013-05-15 14:42:00,76.0,73.0,29.97,SE,135,13.0,19.0,92,0.00,,,0.10,TxWx,2013-05-15 19:42:00,
2013-05-15 14:46:00,76.0,73.0,29.97,SSE,157,15.0,16.0,92,0.00,,,0.10,TxWx,2013-05-15 19:46:00,
2013-05-15 14:47:00,77.0,74.0,29.96,SSE,157,16.0,18.0,92,0.00,,,0.10,TxWx,2013-05-15 19:47:00,
2013-05-15 14:48:00,77.0,74.0,29.96,South,180,15.0,18.0,92,0.00,,,0.10,TxWx,2013-05-15 19:48:00,
2013-05-15 14:53:00,77.0,74.0,29.96,South,180,16.0,17.0,91,0.00,,,0.10,TxWx,2013-05-15 19:53:00,
2013-05-15 14:54:00,77.0,74.0,29.96,SSE,157,14.0,14.0,91,0.00,,,0.10,TxWx,2013-05-15 19:54:00,
2013-05-15 14:59:00,78.0,75.0,29.96,SE,135,14.0,14.0,91,0.00,,,0.10,TxWx,2013-05-15 19:59:00,
2013-05-15 15:00:00,78.0,75.0,29.96,SSE,157,11.0,13.0,90,0.00,,,0.10,TxWx,2013-05-15 20:00:00,
2013-05-15 15:04:00,78.0,75.0,29.95,South,180,13.0,13.0,90,0.00,,,0.10,TxWx,2013-05-15 20:04:00,
2013-05-15 15:05:00,78.0,75.0,29.95,South,180,13.0,13.0,90,0.00,,,0.10,TxWx,2013-05-15 20:05:00,
2013-05-15 15:06:00,78.0,74.0,29.95,SSE,157,19.0,22.0,89,0.00,,,0.10,TxWx,2013-05-15 20:06:00,
2013-05-15 15:08:00,78.0,74.0,29.95,South,180,13.0,16.0,89,0.00,,,0.10,TxWx,2013-05-15 20:08:00,
2013-05-15 15:11:00,77.0,73.0,29.95,SSW,202,16.0,16.0,89,0.00,,,0.10,TxWx,2013-05-15 20:11:00,
2013-05-15 15:12:00,78.0,74.0,29.95,SE,135,12.0,12.0,89,0.00,,,0.10,TxWx,2013-05-15 20:12:00,
2013-05-15 15:15:00,78.0,74.0,29.94,SSE,157,13.0,16.0,89,0.00,,,0.10,TxWx,2013-05-15 20:15:00,
2013-05-15 15:16:00,78.0,74.0,29.94,SSW,202,13.0,13.0,89,0.00,,,0.10,TxWx,2013-05-15 20:16:00,
2013-05-15 15:17:00,78.0,74.0,29.94,SSW,202,11.0,11.0,89,0.00,,,0.10,TxWx,2013-05-15 20:17:00,
2013-05-15 15:22:00,78.0,74.0,29.94,SSE,157,11.0,11.0,89,0.00,,,0.10,TxWx,2013-05-15 20:22:00,
2013-05-15 15:24:00,78.0,74.0,29.93,South,180,10.0,12.0,89,0.00,,,0.10,TxWx,2013-05-15 20:24:00,
2013-05-15 15:27:00,78.0,74.0,29.94,SSE,157,13.0,14.0,89,0.00,,,0.10,TxWx,2013-05-15 20:27:00,
2013-05-15 15:28:00,78.0,74.0,29.93,SE,135,6.0,6.0,89,0.00,,,0.10,TxWx,2013-05-15 20:28:00,
2013-05-15 15:30:00,77.0,73.0,29.93,South,180,14.0,16.0,89,0.00,,,0.10,TxWx,2013-05-15 20:30:00,
2013-05-15 15:31:00,78.0,74.0,29.93,South,180,15.0,15.0,89,0.00,,,0.10,TxWx,2013-05-15 20:31:00,
2013-05-15 15:32:00,78.0,74.0,29.93,SSW,202,10.0,13.0,89,0.00,,,0.10,TxWx,2013-05-15 20:32:00,
2013-05-15 15:36:00,77.0,73.0,29.93,South,180,15.0,18.0,89,0.00,,,0.10,TxWx,2013-05-15 20:36:00,
2013-05-15 15:37:00,78.0,74.0,29.93,South,180,16.0,19.0,89,0.00,,,0.10,TxWx,2013-05-15 20:37:00,
2013-05-15 15:38:00,78.0,74.0,29.93,SSE,157,13.0,13.0,89,0.00,,,0.10,TxWx,2013-05-15 20:38:00,
2013-05-15 15:40:00,78.0,74.0,29.92,SSE,157,16.0,16.0,89,0.00,,,0.10,TxWx,2013-05-15 20:40:00,
2013-05-15 15:42:00,78.0,74.0,29.92,SE,135,15.0,15.0,89,0.00,,,0.10,TxWx,2013-05-15 20:42:00,
2013-05-15 15:43:00,78.0,74.0,29.92,SE,135,10.0,10.0,89,0.00,,,0.10,TxWx,2013-05-15 20:43:00,
2013-05-15 15:44:00,78.0,74.0,29.92,South,180,18.0,21.0,89,0.00,,,0.10,TxWx,2013-05-15 20:44:00,
2013-05-15 15:48:00,77.0,73.0,29.92,South,180,18.0,20.0,89,0.00,,,0.10,TxWx,2013-05-15 20:48:00,
2013-05-15 15:49:00,77.0,73.0,29.92,SSE,157,21.0,21.0,89,0.00,,,0.10,TxWx,2013-05-15 20:49:00,
2013-05-15 15:50:00,78.0,74.0,29.92,ESE,112,5.0,6.0,89,0.00,,,0.10,TxWx,2013-05-15 20:50:00,
2013-05-15 15:53:00,78.0,74.0,29.92,SW,225,10.0,12.0,89,0.00,,,0.10,TxWx,2013-05-15 20:53:00,
2013-05-15 15:55:00,78.0,74.0,29.92,SSE,157,13.0,13.0,89,0.00,,,0.10,TxWx,2013-05-15 20:55:00,
2013-05-15 15:56:00,78.0,74.0,29.92,SSE,157,10.0,10.0,89,0.00,,,0.10,TxWx,2013-05-15 20:56:00,
2013-05-15 15:58:00,77.0,73.0,29.92,SSE,157,26.0,26.0,89,0.00,,,0.10,TxWx,2013-05-15 20:58:00,
2013-05-15 16:01:00,77.0,73.0,29.91,South,180,10.0,14.0,89,0.00,,,0.10,TxWx,2013-05-15 21:01:00,
2013-05-15 16:02:00,77.0,73.0,29.91,South,180,24.0,26.0,89,0.00,,,0.10,TxWx,2013-05-15 21:02:00,
2013-05-15 16:03:00,78.0,75.0,29.91,SSW,202,8.0,10.0,90,0.00,,,0.10,TxWx,2013-05-15 21:03:00,
2013-05-15 16:04:00,77.0,74.0,29.91,South,180,12.0,12.0,90,0.00,,,0.10,TxWx,2013-05-15 21:04:00,
2013-05-15 16:07:00,77.0,73.0,29.91,SSE,157,12.0,12.0,89,0.00,,,0.10,TxWx,2013-05-15 21:07:00,
2013-05-15 16:08:00,77.0,73.0,29.90,SE,135,12.0,13.0,89,0.00,,,0.10,TxWx,2013-05-15 21:08:00,
2013-05-15 16:09:00,77.0,74.0,29.91,SSE,157,10.0,10.0,90,0.00,,,0.10,TxWx,2013-05-15 21:09:00,
2013-05-15 16:13:00,78.0,75.0,29.90,SSE,157,8.0,10.0,90,0.00,,,0.10,TxWx,2013-05-15 21:13:00,
2013-05-15 16:15:00,78.0,74.0,29.90,SW,225,11.0,11.0,89,0.00,,,0.10,TxWx,2013-05-15 21:15:00,
2013-05-15 16:17:00,77.0,73.0,29.90,SSE,157,25.0,25.0,89,0.00,,,0.10,TxWx,2013-05-15 21:17:00,
2013-05-15 16:19:00,77.0,73.0,29.90,SSW,202,18.0,18.0,89,0.00,,,0.10,TxWx,2013-05-15 21:19:00,
2013-05-15 16:20:00,78.0,74.0,29.90,SSW,202,12.0,12.0,89,0.00,,,0.10,TxWx,2013-05-15 21:20:00,
2013-05-15 16:24:00,78.0,75.0,29.90,SSW,202,14.0,18.0,90,0.00,,,0.10,TxWx,2013-05-15 21:24:00,
2013-05-15 16:25:00,78.0,75.0,29.89,SSE,157,20.0,20.0,90,0.00,,,0.10,TxWx,2013-05-15 21:25:00,
2013-05-15 16:26:00,78.0,75.0,29.90,SSE,157,17.0,18.0,90,0.00,,,0.10,TxWx,2013-05-15 21:26:00,
2013-05-15 16:27:00,78.0,74.0,29.89,SSE,157,21.0,23.0,89,0.00,,,0.10,TxWx,2013-05-15 21:27:00,
2013-05-15 16:30:00,78.0,74.0,29.89,South,180,15.0,16.0,89,0.00,,,0.10,TxWx,2013-05-15 21:30:00,
2013-05-15 16:31:00,78.0,74.0,29.89,SSW,202,19.0,19.0,89,0.00,,,0.10,TxWx,2013-05-15 21:31:00,
2013-05-15 16:32:00,78.0,75.0,29.89,SSE,157,10.0,11.0,90,0.00,,,0.10,TxWx,2013-05-15 21:32:00,
2013-05-15 16:36:00,78.0,74.0,29.89,South,180,14.0,14.0,89,0.00,,,0.10,TxWx,2013-05-15 21:36:00,
2013-05-15 16:38:00,78.0,74.0,29.89,SSW,202,17.0,17.0,89,0.00,,,0.10,TxWx,2013-05-15 21:38:00,
2013-05-15 16:39:00,78.0,74.0,29.88,SE,135,8.0,10.0,89,0.00,,,0.10,TxWx,2013-05-15 21:39:00,
2013-05-15 16:40:00,78.0,74.0,29.89,SSE,157,21.0,22.0,89,0.00,,,0.10,TxWx,2013-05-15 21:40:00,
2013-05-15 16:41:00,77.0,73.0,29.88,SE,135,20.0,21.0,89,0.00,,,0.10,TxWx,2013-05-15 21:41:00,
2013-05-15 16:45:00,78.0,74.0,29.88,SSE,157,15.0,15.0,89,0.00,,,0.10,TxWx,2013-05-15 21:45:00,
2013-05-15 16:46:00,78.0,74.0,29.88,SSE,157,16.0,22.0,89,0.00,,,0.10,TxWx,2013-05-15 21:46:00,
2013-05-15 16:49:00,77.0,73.0,29.88,SSE,157,19.0,21.0,89,0.00,,,0.10,TxWx,2013-05-15 21:49:00,
2013-05-15 16:50:00,77.0,73.0,29.88,South,180,12.0,14.0,89,0.00,,,0.10,TxWx,2013-05-15 21:50:00,
2013-05-15 16:51:00,77.0,73.0,29.88,South,180,9.0,9.0,89,0.00,,,0.10,TxWx,2013-05-15 21:51:00,
2013-05-15 16:52:00,77.0,73.0,29.88,SSW,202,9.0,11.0,89,0.00,,,0.10,TxWx,2013-05-15 21:52:00,
2013-05-15 16:54:00,77.0,74.0,29.88,SE,135,8.0,8.0,90,0.00,,,0.10,TxWx,2013-05-15 21:54:00,
2013-05-15 16:56:00,77.0,73.0,29.87,South,180,25.0,25.0,89,0.00,,,0.10,TxWx,2013-05-15 21:56:00,
2013-05-15 16:58:00,77.0,73.0,29.87,SSE,157,23.0,23.0,89,0.00,,,0.10,TxWx,2013-05-15 21:58:00,
2013-05-15 17:01:00,77.0,73.0,29.88,SE,135,13.0,13.0,89,0.00,,,0.10,TxWx,2013-05-15 22:01:00,
2013-05-15 17:02:00,77.0,73.0,29.88,South,180,21.0,21.0,89,0.00,,,0.10,TxWx,2013-05-15 22:02:00,
2013-05-15 17:04:00,77.0,74.0,29.88,SSE,157,10.0,11.0,90,0.00,,,0.10,TxWx,2013-05-15 22:04:00,
2013-05-15 17:07:00,78.0,75.0,29.87,SSE,157,13.0,14.0,90,0.00,,,0.10,TxWx,2013-05-15 22:07:00,
2013-05-15 17:08:00,78.0,75.0,29.87,SE,135,23.0,23.0,90,0.00,,,0.10,TxWx,2013-05-15 22:08:00,
2013-05-15 17:09:00,78.0,74.0,29.87,SSW,202,14.0,18.0,89,0.00,,,0.10,TxWx,2013-05-15 22:09:00,
2013-05-15 17:13:00,77.0,73.0,29.87,SE,135,12.0,16.0,88,0.00,,,0.10,TxWx,2013-05-15 22:13:00,
2013-05-15 17:14:00,77.0,73.0,29.87,SW,225,11.0,17.0,89,0.00,,,0.10,TxWx,2013-05-15 22:14:00,
2013-05-15 17:18:00,78.0,74.0,29.87,South,180,18.0,18.0,89,0.00,,,0.10,TxWx,2013-05-15 22:18:00,
2013-05-15 17:19:00,78.0,74.0,29.87,SSE,157,14.0,14.0,89,0.00,,,0.10,TxWx,2013-05-15 22:19:00,
2013-05-15 17:20:00,78.0,74.0,29.87,South,180,22.0,23.0,89,0.00,,,0.10,TxWx,2013-05-15 22:20:00,
2013-05-15 17:21:00,78.0,74.0,29.86,South,180,14.0,19.0,88,0.00,,,0.10,TxWx,2013-05-15 22:21:00,
2013-05-15 17:23:00,78.0,74.0,29.86,SSE,157,22.0,23.0,89,0.00,,,0.10,TxWx,2013-05-15 22:23:00,
2013-05-15 17:26:00,78.0,74.0,29.86,SSW,202,19.0,19.0,89,0.00,,,0.10,TxWx,2013-05-15 22:26:00,
2013-05-15 17:27:00,78.0,74.0,29.86,SE,135,18.0,18.0,88,0.00,,,0.10,TxWx,2013-05-15 22:27:00,
2013-05-15 17:29:00,77.0,73.0,29.87,SSE,157,15.0,19.0,88,0.00,,,0.10,TxWx,2013-05-15 22:29:00,
2013-05-15 17:31:00,78.0,74.0,29.87,South,180,18.0,18.0,89,0.00,,,0.10,TxWx,2013-05-15 22:31:00,
2013-05-15 17:32:00,78.0,74.0,29.86,SE,135,20.0,20.0,89,0.00,,,0.10,TxWx,2013-05-15 22:32:00,
2013-05-15 17:33:00,78.0,74.0,29.86,SSW,202,13.0,18.0,89,0.00,,,0.10,TxWx,2013-05-15 22:33:00,
2013-05-15 17:37:00,78.0,74.0,29.86,SSE,157,9.0,10.0,89,0.00,,,0.10,TxWx,2013-05-15 22:37:00,
2013-05-15 17:38:00,78.0,74.0,29.86,SE,135,10.0,11.0,89,0.00,,,0.10,TxWx,2013-05-15 22:38:00,
2013-05-15 17:40:00,78.0,74.0,29.86,SE,135,13.0,16.0,88,0.00,,,0.10,TxWx,2013-05-15 22:40:00,
2013-05-15 17:43:00,78.0,74.0,29.86,SE,135,18.0,22.0,88,0.00,,,0.10,TxWx,2013-05-15 22:43:00,
2013-05-15 17:45:00,78.0,74.0,29.87,SSW,202,16.0,16.0,88,0.00,,,0.10,TxWx,2013-05-15 22:45:00,
2013-05-15 17:46:00,78.0,74.0,29.87,SSE,157,12.0,14.0,89,0.00,,,0.10,TxWx,2013-05-15 22:46:00,
2013-05-15 17:48:00,78.0,74.0,29.87,SSE,157,13.0,13.0,88,0.00,,,0.10,TxWx,2013-05-15 22:48:00,
2013-05-15 17:49:00,78.0,74.0,29.87,SW,225,14.0,14.0,88,0.00,,,0.10,TxWx,2013-05-15 22:49:00,
2013-05-15 17:52:00,77.0,73.0,29.87,South,180,14.0,14.0,88,0.00,,,0.10,TxWx,2013-05-15 22:52:00,
2013-05-15 17:54:00,77.0,73.0,29.87,SSE,157,22.0,24.0,88,0.00,,,0.10,TxWx,2013-05-15 22:54:00,
2013-05-15 17:55:00,77.0,73.0,29.87,SSE,157,14.0,14.0,89,0.00,,,0.10,TxWx,2013-05-15 22:55:00,
2013-05-15 17:58:00,77.0,73.0,29.87,SSW,202,8.0,9.0,89,0.00,,,0.10,TxWx,2013-05-15 22:58:00,
2013-05-15 18:00:00,78.0,74.0,29.87,SSW,202,13.0,13.0,89,0.00,,,0.10,TxWx,2013-05-15 23:00:00,
2013-05-15 18:03:00,78.0,74.0,29.87,SE,135,5.0,6.0,89,0.00,,,0.10,TxWx,2013-05-15 23:03:00,
2013-05-15 18:05:00,78.0,74.0,29.87,South,180,10.0,12.0,89,0.00,,,0.10,TxWx,2013-05-15 23:05:00,
2013-05-15 18:06:00,78.0,74.0,29.88,SSW,202,4.0,4.0,89,0.00,,,0.10,TxWx,2013-05-15 23:06:00,
2013-05-15 18:09:00,77.0,73.0,29.87,SSE,157,14.0,15.0,89,0.00,,,0.10,TxWx,2013-05-15 23:09:00,
2013-05-15 18:10:00,77.0,73.0,29.87,South,180,6.0,8.0,89,0.00,,,0.10,TxWx,2013-05-15 23:10:00,
2013-05-15 18:11:00,77.0,73.0,29.87,South,180,9.0,9.0,89,0.00,,,0.10,TxWx,2013-05-15 23:11:00,
2013-05-15 18:13:00,77.0,73.0,29.88,South,180,13.0,13.0,89,0.00,,,0.10,TxWx,2013-05-15 23:13:00,
2013-05-15 18:15:00,77.0,73.0,29.87,SSW,202,14.0,14.0,89,0.00,,,0.10,TxWx,2013-05-15 23:15:00,
2013-05-15 18:16:00,77.0,73.0,29.87,SSW,202,19.0,21.0,89,0.00,,,0.10,TxWx,2013-05-15 23:16:00,
2013-05-15 18:18:00,77.0,73.0,29.87,SSE,157,13.0,15.0,89,0.00,,,0.10,TxWx,2013-05-15 23:18:00,
2013-05-15 18:21:00,77.0,73.0,29.87,South,180,13.0,14.0,89,0.00,,,0.10,TxWx,2013-05-15 23:21:00,
2013-05-15 18:22:00,77.0,73.0,29.87,South,180,11.0,16.0,89,0.00,,,0.10,TxWx,2013-05-15 23:22:00,
2013-05-15 18:23:00,77.0,73.0,29.87,SE,135,11.0,12.0,89,0.00,,,0.10,TxWx,2013-05-15 23:23:00,
2013-05-15 18:26:00,77.0,73.0,29.87,SE,135,10.0,10.0,89,0.00,,,0.10,TxWx,2013-05-15 23:26:00,
2013-05-15 18:28:00,78.0,74.0,29.87,SE,135,6.0,6.0,89,0.00,,,0.10,TxWx,2013-05-15 23:28:00,
2013-05-15 18:29:00,77.0,73.0,29.87,SSW,202,10.0,11.0,89,0.00,,,0.10,TxWx,2013-05-15 23:29:00,
2013-05-15 18:31:00,77.0,73.0,29.87,SSE,157,15.0,18.0,89,0.00,,,0.10,TxWx,2013-05-15 23:31:00,
2013-05-15 18:34:00,77.0,73.0,29.87,SSE,157,18.0,18.0,89,0.00,,,0.10,TxWx,2013-05-15 23:34:00,
2013-05-15 18:35:00,77.0,73.0,29.87,SE,135,14.0,14.0,89,0.00,,,0.10,TxWx,2013-05-15 23:35:00,
2013-05-15 18:37:00,77.0,73.0,29.87,South,180,12.0,14.0,89,0.00,,,0.10,TxWx,2013-05-15 23:37:00,
2013-05-15 18:40:00,77.0,73.0,29.87,SSE,157,11.0,13.0,89,0.00,,,0.10,TxWx,2013-05-15 23:40:00,
2013-05-15 18:42:00,77.0,73.0,29.87,SSW,202,10.0,11.0,89,0.00,,,0.10,TxWx,2013-05-15 23:42:00,
2013-05-15 18:43:00,77.0,73.0,29.87,SSW,202,6.0,7.0,89,0.00,,,0.10,TxWx,2013-05-15 23:43:00,
2013-05-15 18:44:00,77.0,73.0,29.87,SSE,157,10.0,10.0,89,0.00,,,0.10,TxWx,2013-05-15 23:44:00,
2013-05-15 18:45:00,77.0,73.0,29.87,SSW,202,8.0,11.0,89,0.00,,,0.10,TxWx,2013-05-15 23:45:00,
2013-05-15 18:47:00,77.0,73.0,29.87,South,180,13.0,14.0,89,0.00,,,0.10,TxWx,2013-05-15 23:47:00,
2013-05-15 18:49:00,77.0,73.0,29.87,South,180,16.0,16.0,89,0.00,,,0.10,TxWx,2013-05-15 23:49:00,
2013-05-15 18:52:00,77.0,73.0,29.87,SSW,202,13.0,13.0,89,0.00,,,0.10,TxWx,2013-05-15 23:52:00,
2013-05-15 18:54:00,77.0,73.0,29.87,SSE,157,5.0,6.0,89,0.00,,,0.10,TxWx,2013-05-15 23:54:00,
2013-05-15 18:55:00,77.0,73.0,29.87,South,180,12.0,13.0,89,0.00,,,0.10,TxWx,2013-05-15 23:55:00,
2013-05-15 18:57:00,77.0,73.0,29.87,SSE,157,11.0,11.0,89,0.00,,,0.10,TxWx,2013-05-15 23:57:00,
2013-05-15 19:01:00,77.0,74.0,29.87,SSE,157,13.0,13.0,90,0.00,,,0.10,TxWx,2013-05-16 00:01:00,
2013-05-15 19:02:00,77.0,73.0,29.87,SSE,157,17.0,19.0,89,0.00,,,0.10,TxWx,2013-05-16 00:02:00,
2013-05-15 19:05:00,77.0,74.0,29.87,SSE,157,16.0,16.0,90,0.00,,,0.10,TxWx,2013-05-16 00:05:00,
2013-05-15 19:06:00,77.0,74.0,29.87,SSE,157,16.0,16.0,90,0.00,,,0.10,TxWx,2013-05-16 00:06:00,
2013-05-15 19:07:00,77.0,74.0,29.87,SSE,157,8.0,8.0,90,0.00,,,0.10,TxWx,2013-05-16 00:07:00,
2013-05-15 19:08:00,77.0,74.0,29.87,SE,135,10.0,13.0,90,0.00,,,0.10,TxWx,2013-05-16 00:08:00,
2013-05-15 19:10:00,77.0,74.0,29.87,SE,135,8.0,9.0,90,0.00,,,0.10,TxWx,2013-05-16 00:10:00,
2013-05-15 19:12:00,77.0,74.0,29.87,South,180,6.0,7.0,90,0.00,,,0.10,TxWx,2013-05-16 00:12:00,
2013-05-15 19:13:00,77.0,74.0,29.87,SSW,202,8.0,8.0,90,0.00,,,0.10,TxWx,2013-05-16 00:13:00,
2013-05-15 19:16:00,77.0,74.0,29.87,SSE,157,9.0,9.0,91,0.00,,,0.10,TxWx,2013-05-16 00:16:00,
2013-05-15 19:18:00,76.0,73.0,29.87,SSW,202,11.0,11.0,90,0.00,,,0.10,TxWx,2013-05-16 00:18:00,
2013-05-15 19:21:00,76.0,73.0,29.87,South,180,11.0,14.0,91,0.00,,,0.10,TxWx,2013-05-16 00:21:00,
2013-05-15 19:23:00,76.0,73.0,29.87,SSW,202,10.0,11.0,91,0.00,,,0.10,TxWx,2013-05-16 00:23:00,
2013-05-15 19:26:00,76.0,73.0,29.87,SSW,202,8.0,10.0,91,0.00,,,0.10,TxWx,2013-05-16 00:26:00,
2013-05-15 19:27:00,76.0,73.0,29.87,SSW,202,13.0,13.0,91,0.00,,,0.10,TxWx,2013-05-16 00:27:00,
2013-05-15 19:28:00,76.0,73.0,29.87,South,180,12.0,14.0,91,0.00,,,0.10,TxWx,2013-05-16 00:28:00,
2013-05-15 19:29:00,76.0,73.0,29.87,South,180,10.0,12.0,91,0.00,,,0.10,TxWx,2013-05-16 00:29:00,
2013-05-15 19:31:00,76.0,73.0,29.87,SE,135,19.0,19.0,91,0.00,,,0.10,TxWx,2013-05-16 00:31:00,
2013-05-15 19:33:00,76.0,73.0,29.87,SE,135,10.0,10.0,92,0.00,,,0.10,TxWx,2013-05-16 00:33:00,
2013-05-15 19:34:00,76.0,73.0,29.87,South,180,12.0,12.0,92,0.00,,,0.10,TxWx,2013-05-16 00:34:00,
2013-05-15 19:36:00,76.0,73.0,29.87,South,180,13.0,17.0,92,0.00,,,0.10,TxWx,2013-05-16 00:36:00,
2013-05-15 19:39:00,76.0,73.0,29.87,SSE,157,13.0,14.0,92,0.00,,,0.10,TxWx,2013-05-16 00:39:00,
2013-05-15 19:41:00,76.0,73.0,29.87,SSE,157,18.0,18.0,92,0.00,,,0.10,TxWx,2013-05-16 00:41:00,
2013-05-15 19:42:00,76.0,73.0,29.87,SSE,157,13.0,13.0,92,0.00,,,0.10,TxWx,2013-05-16 00:42:00,
2013-05-15 19:45:00,76.0,73.0,29.87,SSE,157,9.0,11.0,92,0.00,,,0.10,TxWx,2013-05-16 00:45:00,
2013-05-15 19:47:00,76.0,73.0,29.88,SSE,157,10.0,10.0,92,0.00,,,0.10,TxWx,2013-05-16 00:47:00,
2013-05-15 19:49:00,76.0,73.0,29.87,SSE,157,10.0,10.0,92,0.00,,,0.10,TxWx,2013-05-16 00:49:00,
2013-05-15 19:51:00,76.0,73.0,29.88,SSW,202,11.0,11.0,92,0.00,,,0.10,TxWx,2013-05-16 00:51:00,
2013-05-15 19:53:00,76.0,73.0,29.88,SE,135,8.0,8.0,92,0.00,,,0.10,TxWx,2013-05-16 00:53:00,
2013-05-15 19:54:00,76.0,73.0,29.88,SW,225,14.0,14.0,92,0.00,,,0.10,TxWx,2013-05-16 00:54:00,
2013-05-15 19:55:00,76.0,73.0,29.88,SSE,157,11.0,11.0,92,0.00,,,0.10,TxWx,2013-05-16 00:55:00,
2013-05-15 19:59:00,76.0,73.0,29.88,SSE,157,11.0,11.0,92,0.00,,,0.10,TxWx,2013-05-16 00:59:00,
2013-05-15 20:00:00,76.0,73.0,29.88,South,180,11.0,11.0,92,0.00,,,0.10,TxWx,2013-05-16 01:00:00,
2013-05-15 20:02:00,76.0,73.0,29.88,SSW,202,6.0,6.0,92,0.00,,,0.10,TxWx,2013-05-16 01:02:00,
2013-05-15 20:04:00,76.0,74.0,29.88,SSE,157,6.0,7.0,93,0.00,,,0.10,TxWx,2013-05-16 01:04:00,
2013-05-15 20:05:00,76.0,74.0,29.88,South,180,10.0,10.0,93,0.00,,,0.10,TxWx,2013-05-16 01:05:00,
2013-05-15 20:07:00,76.0,74.0,29.88,SSE,157,10.0,11.0,93,0.00,,,0.10,TxWx,2013-05-16 01:07:00,
2013-05-15 20:08:00,76.0,74.0,29.88,South,180,8.0,8.0,93,0.00,,,0.10,TxWx,2013-05-16 01:08:00,
2013-05-15 20:11:00,76.0,74.0,29.88,SSE,157,8.0,8.0,93,0.00,,,0.10,TxWx,2013-05-16 01:11:00,
2013-05-15 20:12:00,76.0,74.0,29.88,South,180,11.0,12.0,93,0.00,,,0.10,TxWx,2013-05-16 01:12:00,
2013-05-15 20:13:00,76.0,74.0,29.88,South,180,11.0,11.0,93,0.00,,,0.10,TxWx,2013-05-16 01:13:00,
2013-05-15 20:14:00,76.0,74.0,29.88,SSW,202,8.0,10.0,93,0.00,,,0.10,TxWx,2013-05-16 01:14:00,
2013-05-15 20:17:00,76.0,74.0,29.88,SSE,157,8.0,8.0,93,0.00,,,0.10,TxWx,2013-05-16 01:17:00,
2013-05-15 20:18:00,76.0,74.0,29.87,SSW,202,8.0,10.0,93,0.00,,,0.10,TxWx,2013-05-16 01:18:00,
2013-05-15 20:20:00,76.0,74.0,29.88,South,180,9.0,9.0,93,0.00,,,0.10,TxWx,2013-05-16 01:20:00,
2013-05-15 20:23:00,76.0,74.0,29.87,South,180,5.0,7.0,93,0.00,,,0.10,TxWx,2013-05-16 01:23:00,
2013-05-15 20:24:00,76.0,74.0,29.88,South,180,12.0,12.0,93,0.00,,,0.10,TxWx,2013-05-16 01:24:00,
2013-05-15 20:27:00,76.0,74.0,29.88,SSW,202,11.0,11.0,93,0.00,,,0.10,TxWx,2013-05-16 01:27:00,
2013-05-15 20:29:00,75.0,73.0,29.88,South,180,10.0,13.0,93,0.00,,,0.10,TxWx,2013-05-16 01:29:00,
2013-05-15 20:30:00,76.0,74.0,29.88,SSE,157,12.0,12.0,93,0.00,,,0.10,TxWx,2013-05-16 01:30:00,
2013-05-15 20:33:00,75.0,73.0,29.88,SSE,157,11.0,11.0,93,0.00,,,0.10,TxWx,2013-05-16 01:33:00,
2013-05-15 20:34:00,75.0,73.0,29.88,SE,135,10.0,10.0,93,0.00,,,0.10,TxWx,2013-05-16 01:34:00,
2013-05-15 20:35:00,75.0,73.0,29.88,SSW,202,10.0,12.0,93,0.00,,,0.10,TxWx,2013-05-16 01:35:00,
2013-05-15 20:39:00,75.0,73.0,29.88,South,180,6.0,6.0,94,0.00,,,0.10,TxWx,2013-05-16 01:39:00,
2013-05-15 20:40:00,75.0,73.0,29.88,South,180,7.0,8.0,94,0.00,,,0.10,TxWx,2013-05-16 01:40:00,
2013-05-15 20:42:00,75.0,73.0,29.88,South,180,7.0,8.0,94,0.00,,,0.10,TxWx,2013-05-16 01:42:00,
2013-05-15 20:43:00,75.0,73.0,29.88,South,180,7.0,7.0,94,0.00,,,0.10,TxWx,2013-05-16 01:43:00,
2013-05-15 20:45:00,75.0,73.0,29.88,SSW,202,9.0,10.0,94,0.00,,,0.10,TxWx,2013-05-16 01:45:00,
2013-05-15 20:47:00,75.0,73.0,29.88,SSE,157,7.0,8.0,94,0.00,,,0.10,TxWx,2013-05-16 01:47:00,
2013-05-15 20:49:00,75.0,73.0,29.88,South,180,8.0,9.0,94,0.00,,,0.10,TxWx,2013-05-16 01:49:00,
2013-05-15 20:51:00,75.0,73.0,29.88,South,180,7.0,8.0,94,0.00,,,0.10,TxWx,2013-05-16 01:51:00,
2013-05-15 20:54:00,75.0,73.0,29.88,SSW,202,10.0,11.0,94,0.00,,,0.10,TxWx,2013-05-16 01:54:00,
2013-05-15 20:55:00,75.0,73.0,29.88,South,180,10.0,10.0,94,0.00,,,0.10,TxWx,2013-05-16 01:55:00,
2013-05-15 20:56:00,75.0,73.0,29.88,SSW,202,11.0,11.0,94,0.00,,,0.10,TxWx,2013-05-16 01:56:00,
2013-05-15 20:57:00,75.0,73.0,29.88,SSE,157,5.0,6.0,94,0.00,,,0.10,TxWx,2013-05-16 01:57:00,
2013-05-15 21:00:00,75.0,73.0,29.88,South,180,16.0,16.0,94,0.00,,,0.10,TxWx,2013-05-16 02:00:00,
2013-05-15 21:01:00,75.0,73.0,29.88,SSE,157,12.0,13.0,95,0.00,,,0.10,TxWx,2013-05-16 02:01:00,
2013-05-15 21:02:00,75.0,73.0,29.89,SSE,157,13.0,13.0,95,0.00,,,0.10,TxWx,2013-05-16 02:02:00,
2013-05-15 21:04:00,75.0,73.0,29.89,SSW,202,8.0,10.0,95,0.00,,,0.10,TxWx,2013-05-16 02:04:00,
2013-05-15 21:06:00,75.0,73.0,29.89,SE,135,7.0,10.0,95,0.00,,,0.10,TxWx,2013-05-16 02:06:00,
2013-05-15 21:08:00,75.0,73.0,29.88,SSW,202,8.0,8.0,95,0.00,,,0.10,TxWx,2013-05-16 02:08:00,
2013-05-15 21:10:00,75.0,73.0,29.88,SSE,157,15.0,17.0,95,0.00,,,0.10,TxWx,2013-05-16 02:10:00,
2013-05-15 21:13:00,75.0,73.0,29.88,SSE,157,18.0,18.0,95,0.00,,,0.10,TxWx,2013-05-16 02:13:00,
2013-05-15 21:14:00,75.0,73.0,29.88,SSW,202,10.0,10.0,95,0.00,,,0.10,TxWx,2013-05-16 02:14:00,
2013-05-15 21:15:00,75.0,73.0,29.88,SSE,157,8.0,8.0,95,0.00,,,0.10,TxWx,2013-05-16 02:15:00,
2013-05-15 21:16:00,75.0,73.0,29.88,SSW,202,8.0,12.0,95,0.00,,,0.10,TxWx,2013-05-16 02:16:00,
2013-05-15 21:18:00,75.0,73.0,29.88,SE,135,10.0,11.0,95,0.00,,,0.10,TxWx,2013-05-16 02:18:00,
2013-05-15 21:20:00,75.0,73.0,29.88,South,180,19.0,23.0,95,0.00,,,0.10,TxWx,2013-05-16 02:20:00,
2013-05-15 21:24:00,75.0,73.0,29.88,SSW,202,12.0,13.0,95,0.00,,,0.10,TxWx,2013-05-16 02:24:00,
2013-05-15 21:25:00,75.0,73.0,29.88,SW,225,12.0,12.0,95,0.00,,,0.10,TxWx,2013-05-16 02:25:00,
2013-05-15 21:26:00,75.0,73.0,29.88,South,180,14.0,17.0,95,0.00,,,0.10,TxWx,2013-05-16 02:26:00,
2013-05-15 21:29:00,75.0,73.0,29.88,South,180,12.0,13.0,95,0.00,,,0.10,TxWx,2013-05-16 02:29:00,
2013-05-15 21:30:00,75.0,73.0,29.88,SSW,202,10.0,15.0,95,0.00,,,0.10,TxWx,2013-05-16 02:30:00,
2013-05-15 21:31:00,75.0,73.0,29.88,SE,135,10.0,10.0,95,0.00,,,0.10,TxWx,2013-05-16 02:31:00,
2013-05-15 21:32:00,75.0,73.0,29.88,SSW,202,16.0,19.0,95,0.00,,,0.10,TxWx,2013-05-16 02:32:00,
2013-05-15 21:35:00,75.0,73.0,29.88,SSE,157,16.0,19.0,95,0.00,,,0.10,TxWx,2013-05-16 02:35:00,
2013-05-15 21:36:00,75.0,73.0,29.88,SSW,202,16.0,16.0,95,0.00,,,0.10,TxWx,2013-05-16 02:36:00,
2013-05-15 21:38:00,75.0,73.0,29.88,South,180,14.0,14.0,95,0.00,,,0.10,TxWx,2013-05-16 02:38:00,
2013-05-15 21:41:00,75.0,73.0,29.88,SSW,202,8.0,10.0,95,0.00,,,0.10,TxWx,2013-05-16 02:41:00,
2013-05-15 21:42:00,75.0,73.0,29.88,SE,135,12.0,12.0,95,0.00,,,0.10,TxWx,2013-05-16 02:42:00,
2013-05-15 21:47:00,75.0,73.0,29.87,SSE,157,11.0,14.0,95,0.00,,,0.10,TxWx,2013-05-16 02:47:00,
2013-05-15 21:48:00,75.0,73.0,29.87,SSW,202,12.0,17.0,95,0.00,,,0.10,TxWx,2013-05-16 02:48:00,
2013-05-15 21:51:00,75.0,73.0,29.87,SSE,157,14.0,14.0,95,0.00,,,0.10,TxWx,2013-05-16 02:51:00,
2013-05-15 21:54:00,75.0,73.0,29.88,SSW,202,11.0,11.0,95,0.00,,,0.10,TxWx,2013-05-16 02:54:00,
2013-05-15 21:58:00,75.0,73.0,29.88,South,180,19.0,23.0,95,0.00,,,0.10,TxWx,2013-05-16 02:58:00,
2013-05-15 21:59:00,75.0,73.0,29.88,SSW,202,10.0,14.0,95,0.00,,,0.10,TxWx,2013-05-16 02:59:00,
2013-05-15 22:00:00,75.0,73.0,29.88,SSW,202,22.0,22.0,95,0.00,,,0.10,TxWx,2013-05-16 03:00:00,
2013-05-15 22:03:00,75.0,73.0,29.89,South,180,14.0,14.0,95,0.00,,,0.10,TxWx,2013-05-16 03:03:00,
2013-05-15 22:05:00,75.0,73.0,29.89,South,180,14.0,16.0,95,0.00,,,0.10,TxWx,2013-05-16 03:05:00,
2013-05-15 22:06:00,75.0,73.0,29.89,SSW,202,10.0,10.0,95,0.00,,,0.10,TxWx,2013-05-16 03:06:00,
2013-05-15 22:11:00,75.0,73.0,29.89,South,180,5.0,6.0,95,0.00,,,0.10,TxWx,2013-05-16 03:11:00,
2013-05-15 22:13:00,75.0,73.0,29.89,South,180,10.0,10.0,95,0.00,,,0.10,TxWx,2013-05-16 03:13:00,
2013-05-15 22:14:00,75.0,73.0,29.89,SW,225,9.0,9.0,95,0.00,,,0.10,TxWx,2013-05-16 03:14:00,
2013-05-15 22:18:00,75.0,73.0,29.89,SSE,157,6.0,7.0,95,0.00,,,0.10,TxWx,2013-05-16 03:18:00,
2013-05-15 22:19:00,75.0,73.0,29.89,SW,225,8.0,8.0,95,0.00,,,0.10,TxWx,2013-05-16 03:19:00,
2013-05-15 22:20:00,75.0,73.0,29.89,SSE,157,11.0,11.0,95,0.00,,,0.10,TxWx,2013-05-16 03:20:00,
2013-05-15 22:24:00,75.0,73.0,29.89,SSE,157,16.0,16.0,94,0.00,,,0.10,TxWx,2013-05-16 03:24:00,
2013-05-15 22:25:00,75.0,73.0,29.89,SW,225,13.0,13.0,94,0.00,,,0.10,TxWx,2013-05-16 03:25:00,
2013-05-15 22:29:00,75.0,73.0,29.89,SSE,157,12.0,12.0,94,0.00,,,0.10,TxWx,2013-05-16 03:29:00,
2013-05-15 22:30:00,75.0,73.0,29.89,SSE,157,15.0,15.0,94,0.00,,,0.10,TxWx,2013-05-16 03:30:00,
2013-05-15 22:31:00,75.0,73.0,29.89,SSW,202,10.0,11.0,94,0.00,,,0.10,TxWx,2013-05-16 03:31:00,
2013-05-15 22:34:00,75.0,73.0,29.89,SSW,202,9.0,10.0,94,0.00,,,0.10,TxWx,2013-05-16 03:34:00,
2013-05-15 22:35:00,75.0,73.0,29.89,South,180,7.0,7.0,94,0.00,,,0.10,TxWx,2013-05-16 03:35:00,
2013-05-15 22:36:00,75.0,73.0,29.89,SSW,202,10.0,10.0,94,0.00,,,0.10,TxWx,2013-05-16 03:36:00,
2013-05-15 22:40:00,75.0,73.0,29.89,SSW,202,9.0,13.0,94,0.00,,,0.10,TxWx,2013-05-16 03:40:00,
2013-05-15 22:41:00,75.0,73.0,29.89,South,180,13.0,19.0,94,0.00,,,0.10,TxWx,2013-05-16 03:41:00,
2013-05-15 22:43:00,75.0,73.0,29.89,SSW,202,13.0,15.0,94,0.00,,,0.10,TxWx,2013-05-16 03:43:00,
2013-05-15 22:47:00,75.0,73.0,29.89,SSW,202,15.0,16.0,95,0.00,,,0.10,TxWx,2013-05-16 03:47:00,
2013-05-15 22:48:00,75.0,73.0,29.89,South,180,11.0,11.0,95,0.00,,,0.10,TxWx,2013-05-16 03:48:00,
2013-05-15 22:49:00,75.0,73.0,29.89,SSW,202,11.0,12.0,95,0.00,,,0.10,TxWx,2013-05-16 03:49:00,
2013-05-15 22:52:00,75.0,73.0,29.89,SSE,157,12.0,12.0,95,0.00,,,0.10,TxWx,2013-05-16 03:52:00,
2013-05-15 22:54:00,75.0,73.0,29.89,SSW,202,11.0,13.0,95,0.00,,,0.10,TxWx,2013-05-16 03:54:00,
2013-05-15 22:55:00,75.0,73.0,29.89,South,180,21.0,21.0,95,0.00,,,0.10,TxWx,2013-05-16 03:55:00,
2013-05-15 22:56:00,75.0,73.0,29.89,South,180,19.0,21.0,95,0.00,,,0.10,TxWx,2013-05-16 03:56:00,
2013-05-15 22:58:00,75.0,73.0,29.89,SW,225,13.0,14.0,95,0.00,,,0.10,TxWx,2013-05-16 03:58:00,
2013-05-15 23:00:00,75.0,73.0,29.89,South,180,13.0,14.0,95,0.00,,,0.10,TxWx,2013-05-16 04:00:00,
2013-05-15 23:01:00,75.0,73.0,29.89,SE,135,5.0,5.0,95,0.00,,,0.10,TxWx,2013-05-16 04:01:00,
2013-05-15 23:03:00,75.0,73.0,29.89,South,180,8.0,8.0,95,0.00,,,0.10,TxWx,2013-05-16 04:03:00,
2013-05-15 23:06:00,75.0,73.0,29.89,SSE,157,16.0,16.0,95,0.00,,,0.10,TxWx,2013-05-16 04:06:00,
2013-05-15 23:07:00,75.0,73.0,29.89,SSE,157,14.0,14.0,95,0.00,,,0.10,TxWx,2013-05-16 04:07:00,
2013-05-15 23:08:00,75.0,73.0,29.89,SW,225,11.0,11.0,95,0.00,,,0.10,TxWx,2013-05-16 04:08:00,
2013-05-15 23:10:00,75.0,73.0,29.89,South,180,10.0,11.0,95,0.00,,,0.10,TxWx,2013-05-16 04:10:00,
2013-05-15 23:13:00,75.0,73.0,29.89,SSW,202,9.0,10.0,95,0.00,,,0.10,TxWx,2013-05-16 04:13:00,
2013-05-15 23:14:00,75.0,73.0,29.89,SSW,202,8.0,10.0,95,0.00,,,0.10,TxWx,2013-05-16 04:14:00,
2013-05-15 23:15:00,75.0,73.0,29.89,South,180,14.0,14.0,95,0.00,,,0.10,TxWx,2013-05-16 04:15:00,
2013-05-15 23:16:00,75.0,73.0,29.89,South,180,9.0,11.0,95,0.00,,,0.10,TxWx,2013-05-16 04:16:00,
2013-05-15 23:18:00,75.0,73.0,29.89,SSW,202,8.0,9.0,95,0.00,,,0.10,TxWx,2013-05-16 04:18:00,
2013-05-15 23:19:00,75.0,73.0,29.89,South,180,16.0,18.0,95,0.00,,,0.10,TxWx,2013-05-16 04:19:00,
2013-05-15 23:21:00,75.0,73.0,29.89,SSW,202,11.0,13.0,95,0.00,,,0.10,TxWx,2013-05-16 04:21:00,
2013-05-15 23:22:00,75.0,73.0,29.89,South,180,11.0,12.0,95,0.00,,,0.10,TxWx,2013-05-16 04:22:00,
2013-05-15 23:25:00,75.0,73.0,29.89,SSW,202,6.0,7.0,95,0.00,,,0.10,TxWx,2013-05-16 04:25:00,
2013-05-15 23:26:00,75.0,73.0,29.89,South,180,8.0,8.0,95,0.00,,,0.10,TxWx,2013-05-16 04:26:00,
2013-05-15 23:27:00,75.0,73.0,29.89,SSE,157,11.0,13.0,95,0.00,,,0.10,TxWx,2013-05-16 04:27:00,
2013-05-15 23:30:00,75.0,73.0,29.89,South,180,10.0,11.0,95,0.00,,,0.10,TxWx,2013-05-16 04:30:00,
2013-05-15 23:31:00,75.0,73.0,29.89,SW,225,9.0,11.0,95,0.00,,,0.10,TxWx,2013-05-16 04:31:00,
2013-05-15 23:32:00,75.0,73.0,29.89,SSE,157,10.0,11.0,95,0.00,,,0.10,TxWx,2013-05-16 04:32:00,
2013-05-15 23:36:00,75.0,74.0,29.88,SSE,157,6.0,6.0,96,0.00,,,0.10,TxWx,2013-05-16 04:36:00,
2013-05-15 23:37:00,75.0,74.0,29.88,South,180,7.0,7.0,96,0.00,,,0.10,TxWx,2013-05-16 04:37:00,
2013-05-15 23:38:00,75.0,73.0,29.88,South,180,13.0,14.0,95,0.00,,,0.10,TxWx,2013-05-16 04:38:00,
2013-05-15 23:42:00,75.0,74.0,29.89,South,180,11.0,13.0,96,0.00,,,0.10,TxWx,2013-05-16 04:42:00,
2013-05-15 23:43:00,75.0,74.0,29.89,South,180,10.0,11.0,96,0.00,,,0.10,TxWx,2013-05-16 04:43:00,
2013-05-15 23:44:00,75.0,74.0,29.88,SW,225,13.0,14.0,96,0.00,,,0.10,TxWx,2013-05-16 04:44:00,
2013-05-15 23:46:00,75.0,74.0,29.88,WSW,247,7.0,7.0,96,0.00,,,0.10,TxWx,2013-05-16 04:46:00,
2013-05-15 23:48:00,75.0,74.0,29.88,South,180,14.0,15.0,96,0.00,,,0.10,TxWx,2013-05-16 04:48:00,
2013-05-15 23:51:00,75.0,74.0,29.88,SSE,157,10.0,10.0,96,0.00,,,0.10,TxWx,2013-05-16 04:51:00,
2013-05-15 23:52:00,75.0,74.0,29.88,SSW,202,19.0,19.0,96,0.00,,,0.10,TxWx,2013-05-16 04:52:00,
2013-05-15 23:53:00,75.0,74.0,29.88,SSW,202,14.0,14.0,96,0.00,,,0.10,TxWx,2013-05-16 04:53:00,
2013-05-15 23:55:00,75.0,74.0,29.88,SE,135,13.0,13.0,96,0.00,,,0.10,TxWx,2013-05-16 04:55:00,
2013-05-15 23:56:00,75.0,74.0,29.88,South,180,8.0,8.0,96,0.00,,,0.10,TxWx,2013-05-16 04:56:00,
2013-05-15 23:57:00,75.0,74.0,29.88,South,180,8.0,9.0,96,0.00,,,0.10,TxWx,2013-05-16 04:57:00,
2013-05-15 23:58:00,75.0,74.0,29.88,South,180,13.0,19.0,96,0.00,,,0.10,TxWx,2013-05-16 04:58:00,
2013-05-15 23:59:00,75.0,74.0,29.88,SSW,202,5.0,6.0,96,0.00,,,0.10,TxWx,2013-05-16 04:59:00,